Observation data for Palo Duro Canyon State Park Floor on 05/24/2020      Previous  Date  Next       Current Mesonet Observations  Soil Data  Daily Summary Page  Observations in Plain Language
KPD2 240500Z 13007KT 22/10 A298 RMK A01 T02160103  RH  049%=      5-min Rain = 0
KPD2 240501Z 14008KT 22/10 A298 RMK A01 T02150104  RH  049%=      5-min Rain = 0
KPD2 240502Z 14008KT 22/10 A298 RMK A01 T02150104  RH  049%=      5-min Rain = 0
KPD2 240503Z 14007KT 21/10 A298 RMK A01 T02140104  RH  049%=      5-min Rain = 0
KPD2 240504Z 15007KT 21/10 A298 RMK A01 T02140104  RH  049%=      5-min Rain = 0
KPD2 240505Z 14007KT 21/10 A298 RMK A01 T02140104  RH  049%=      5-min Rain = 0
KPD2 240506Z 14007KT 21/10 A298 RMK A01 T02130104  RH  050%=      5-min Rain = 0
KPD2 240507Z 14008KT 21/10 A298 RMK A01 T02130104  RH  050%=      5-min Rain = 0
KPD2 240508Z 15009KT 21/10 A298 RMK A01 T02130104  RH  050%=      5-min Rain = 0
KPD2 240509Z 15009KT 21/10 A298 RMK A01 T02130104  RH  050%=      5-min Rain = 0
KPD2 240510Z 15009KT 21/10 A298 RMK A01 T02140104  RH  050%=      5-min Rain = 0
KPD2 240511Z 14008KT 21/10 A298 RMK A01 T02140104  RH  050%=      5-min Rain = 0
KPD2 240512Z 14008KT 21/10 A298 RMK A01 T02140104  RH  050%=      5-min Rain = 0
KPD2 240513Z 14008KT 21/10 A298 RMK A01 T02140104  RH  050%=      5-min Rain = 0
KPD2 240514Z 14007KT 21/10 A298 RMK A01 T02140104  RH  050%=      5-min Rain = 0
KPD2 240515Z 15007KT 21/10 A298 RMK A01 T02140104  RH  050%=      5-min Rain = 0
KPD2 240516Z 15008KT 21/11 A2981 RMK A01 T02140105  RH  050%=      5-min Rain = 0
KPD2 240517Z 15008KT 21/11 A2981 RMK A01 T02130105  RH  050%=      5-min Rain = 0
KPD2 240518Z 15009KT 21/11 A2981 RMK A01 T02130105  RH  050%=      5-min Rain = 0
KPD2 240519Z 16009KT 21/11 A298 RMK A01 T02120105  RH  050%=      5-min Rain = 0
KPD2 240520Z 16008KT 21/11 A298 RMK A01 T02120105  RH  051%=      5-min Rain = 0
KPD2 240521Z 15007KT 21/11 A298 RMK A01 T02110105  RH  051%=      5-min Rain = 0
KPD2 240522Z 16008KT 21/11 A298 RMK A01 T02110106  RH  051%=      5-min Rain = 0
KPD2 240523Z 15010KT 21/11 A298 RMK A01 T02110106  RH  051%=      5-min Rain = 0
KPD2 240524Z 16008KT 21/11 A298 RMK A01 T02110106  RH  051%=      5-min Rain = 0
KPD2 240525Z 16007KT 21/11 A298 RMK A01 T02110106  RH  051%=      5-min Rain = 0
KPD2 240526Z 16007KT 21/11 A2981 RMK A01 T02110106  RH  051%=      5-min Rain = 0
KPD2 240527Z 15008KT 21/11 A2981 RMK A01 T02100106  RH  051%=      5-min Rain = 0
KPD2 240528Z 15010KT 21/11 A2981 RMK A01 T02100107  RH  052%=      5-min Rain = 0
KPD2 240529Z 16009KT 21/11 A2981 RMK A01 T02100107  RH  052%=      5-min Rain = 0
KPD2 240530Z 15009KT 21/11 A2981 RMK A01 T02100107  RH  052%=      5-min Rain = 0
KPD2 240531Z 15008KT 21/11 A2981 RMK A01 T02090108  RH  052%=      5-min Rain = 0
KPD2 240532Z 15008KT 21/11 A2981 RMK A01 T02090108  RH  052%=      5-min Rain = 0
KPD2 240533Z 15009KT 21/11 A2981 RMK A01 T02090108  RH  052%=      5-min Rain = 0
KPD2 240534Z 15008KT 21/11 A2981 RMK A01 T02080108  RH  053%=      5-min Rain = 0
KPD2 240535Z 15008KT 21/11 A2981 RMK A01 T02080108  RH  053%=      5-min Rain = 0
KPD2 240536Z 16008KT 21/11 A2981 RMK A01 T02080108  RH  053%=      5-min Rain = 0
KPD2 240537Z 16007KT 21/11 A2981 RMK A01 T02080108  RH  053%=      5-min Rain = 0
KPD2 240538Z 15009KT 21/11 A2981 RMK A01 T02070108  RH  053%=      5-min Rain = 0
KPD2 240539Z 14009KT 21/11 A2981 RMK A01 T02070108  RH  053%=      5-min Rain = 0
KPD2 240540Z 14007G12KT 21/11 A2981 RMK A01 T02070108  RH  053%=      5-min Rain = 0
KPD2 240541Z 15009KT 21/11 A2981 RMK A01 T02070108  RH  053%=      5-min Rain = 0
KPD2 240542Z 15008KT 21/11 A2981 RMK A01 T02070107  RH  053%=      5-min Rain = 0
KPD2 240543Z 15008KT 21/11 A2981 RMK A01 T02080108  RH  053%=      5-min Rain = 0
KPD2 240544Z 15009KT 21/11 A2981 RMK A01 T02080108  RH  053%=      5-min Rain = 0
KPD2 240545Z 14010KT 21/11 A2981 RMK A01 T02080108  RH  053%=      5-min Rain = 0
KPD2 240546Z 14007KT 21/11 A2981 RMK A01 T02080107  RH  053%=      5-min Rain = 0
KPD2 240547Z 14009KT 21/11 A2981 RMK A01 T02080108  RH  053%=      5-min Rain = 0
KPD2 240548Z 14009KT 21/11 A2981 RMK A01 T02080108  RH  053%=      5-min Rain = 0
KPD2 240549Z 15008KT 21/11 A2981 RMK A01 T02080108  RH  053%=      5-min Rain = 0
KPD2 240550Z 13011KT 21/11 A2981 RMK A01 T02080109  RH  053%=      5-min Rain = 0
KPD2 240551Z 14010KT 21/11 A2981 RMK A01 T02070108  RH  053%=      5-min Rain = 0
KPD2 240552Z 13009KT 21/11 A2981 RMK A01 T02080108  RH  053%=      5-min Rain = 0
KPD2 240553Z 13008KT 21/11 A2981 RMK A01 T02080108  RH  053%=      5-min Rain = 0
KPD2 240554Z 13008KT 21/11 A2981 RMK A01 T02070108  RH  053%=      5-min Rain = 0
KPD2 240555Z 13009KT 21/11 A2981 RMK A01 T02070108  RH  053%=      5-min Rain = 0
KPD2 240556Z 14009KT 21/11 A2981 RMK A01 T02060108  RH  053%=      5-min Rain = 0
KPD2 240557Z 14008KT 21/11 A2981 RMK A01 T02060108  RH  054%=      5-min Rain = 0
KPD2 240558Z 14007KT 21/11 A2981 RMK A01 T02060109  RH  054%=      5-min Rain = 0
KPD2 240559Z 14007KT 21/11 A2981 RMK A01 T02060109  RH  054%=      5-min Rain = 0
KPD2 240600Z 14006KT 21/11 A2981 RMK A01 T02050109  RH  054%=      5-min Rain = 0
KPD2 240601Z 15006KT 21/11 A2981 RMK A01 T02050109  RH  054%=      5-min Rain = 0
KPD2 240602Z 15006KT 21/11 A2981 RMK A01 T02050109  RH  054%=      5-min Rain = 0
KPD2 240603Z 14005KT 20/11 A2981 RMK A01 T02040109  RH  054%=      5-min Rain = 0
KPD2 240604Z 14005KT 20/11 A2981 RMK A01 T02040109  RH  054%=      5-min Rain = 0
KPD2 240605Z 13004KT 20/11 A2981 RMK A01 T02030109  RH  055%=      5-min Rain = 0
KPD2 240606Z 14004KT 20/11 A2981 RMK A01 T02030109  RH  055%=      5-min Rain = 0
KPD2 240607Z 15004KT 20/11 A2981 RMK A01 T02030109  RH  055%=      5-min Rain = 0
KPD2 240608Z 14004KT 20/11 A2981 RMK A01 T02020109  RH  055%=      5-min Rain = 0
KPD2 240609Z 14004KT 20/11 A2981 RMK A01 T02020109  RH  055%=      5-min Rain = 0
KPD2 240610Z 14006KT 20/11 A2981 RMK A01 T02010109  RH  055%=      5-min Rain = 0
KPD2 240611Z 13005KT 20/11 A2981 RMK A01 T02010109  RH  055%=      5-min Rain = 0
KPD2 240612Z 14004KT 20/11 A2981 RMK A01 T02000108  RH  055%=      5-min Rain = 0
KPD2 240613Z 14004KT 20/11 A2981 RMK A01 T02000108  RH  056%=      5-min Rain = 0
KPD2 240614Z 13005KT 20/11 A2981 RMK A01 T01990108  RH  056%=      5-min Rain = 0
KPD2 240615Z 13005KT 20/11 A2981 RMK A01 T01990108  RH  056%=      5-min Rain = 0
KPD2 240616Z 13004KT 20/11 A2981 RMK A01 T01980108  RH  056%=      5-min Rain = 0
KPD2 240617Z 14006KT 20/11 A2981 RMK A01 T01980108  RH  056%=      5-min Rain = 0
KPD2 240618Z 14007KT 20/11 A2981 RMK A01 T01970108  RH  056%=      5-min Rain = 0
KPD2 240619Z 14007KT 20/11 A2981 RMK A01 T01980108  RH  056%=      5-min Rain = 0
KPD2 240620Z 14008KT 20/11 A2981 RMK A01 T01990107  RH  056%=      5-min Rain = 0
KPD2 240621Z 15008KT 20/11 A2981 RMK A01 T02000108  RH  055%=      5-min Rain = 0
KPD2 240622Z 14009KT 20/11 A2981 RMK A01 T02010108  RH  055%=      5-min Rain = 0
KPD2 240623Z 14008G13KT 20/11 A2981 RMK A01 T02010108  RH  055%=      5-min Rain = 0
KPD2 240624Z 15010KT 20/11 A2981 RMK A01 T02020108  RH  055%=      5-min Rain = 0
KPD2 240625Z 14010KT 20/11 A2981 RMK A01 T02030108  RH  054%=      5-min Rain = 0
KPD2 240626Z 14008KT 20/11 A2981 RMK A01 T02030108  RH  054%=      5-min Rain = 0
KPD2 240627Z 14010KT 20/11 A2981 RMK A01 T02030108  RH  054%=      5-min Rain = 0
KPD2 240628Z 14009KT 20/11 A2981 RMK A01 T02030108  RH  054%=      5-min Rain = 0
KPD2 240629Z 14008KT 20/11 A2981 RMK A01 T02030108  RH  054%=      5-min Rain = 0
KPD2 240630Z 14009KT 20/11 A2981 RMK A01 T02030109  RH  055%=      5-min Rain = 0
KPD2 240631Z 15008KT 20/11 A2981 RMK A01 T02030109  RH  055%=      5-min Rain = 0
KPD2 240632Z 16007KT 20/11 A2981 RMK A01 T02030110  RH  055%=      5-min Rain = 0
KPD2 240633Z 14008KT 20/11 A2981 RMK A01 T02030110  RH  055%=      5-min Rain = 0
KPD2 240634Z 14007KT 20/11 A2981 RMK A01 T02020110  RH  055%=      5-min Rain = 0
KPD2 240635Z 13009KT 20/11 A2981 RMK A01 T02030110  RH  055%=      5-min Rain = 0
KPD2 240636Z 12008KT 20/11 A2981 RMK A01 T02020110  RH  055%=      5-min Rain = 0
KPD2 240637Z 14008KT 20/11 A2981 RMK A01 T02020110  RH  056%=      5-min Rain = 0
KPD2 240638Z 13008KT 20/11 A2981 RMK A01 T02020110  RH  056%=      5-min Rain = 0
KPD2 240639Z 14010KT 20/11 A2981 RMK A01 T02010111  RH  056%=      5-min Rain = 0
KPD2 240640Z 14008KT 20/11 A2981 RMK A01 T02010111  RH  056%=      5-min Rain = 0
KPD2 240641Z 14008KT 20/11 A2981 RMK A01 T02010111  RH  056%=      5-min Rain = 0
KPD2 240642Z 13008KT 20/11 A2981 RMK A01 T02010111  RH  056%=      5-min Rain = 0
KPD2 240643Z 12009G14KT 20/11 A2981 RMK A01 T02000111  RH  056%=      5-min Rain = 0
KPD2 240644Z 12013KT 20/11 A2981 RMK A01 T02000111  RH  056%=      5-min Rain = 0
KPD2 240645Z 13012KT 20/11 A2981 RMK A01 T02000110  RH  056%=      5-min Rain = 0
KPD2 240646Z 13012KT 20/11 A2981 RMK A01 T02000110  RH  056%=      5-min Rain = 0
KPD2 240647Z 13011KT 20/11 A2981 RMK A01 T02000110  RH  056%=      5-min Rain = 0
KPD2 240648Z 14010KT 20/11 A2981 RMK A01 T02000111  RH  056%=      5-min Rain = 0
KPD2 240649Z 12011KT 20/11 A2981 RMK A01 T02000111  RH  057%=      5-min Rain = 0
KPD2 240650Z 12009KT 20/11 A2981 RMK A01 T01990111  RH  057%=      5-min Rain = 0
KPD2 240651Z 12009KT 20/11 A2982 RMK A01 T01990111  RH  057%=      5-min Rain = 0
KPD2 240652Z 12010KT 20/11 A2981 RMK A01 T01990112  RH  057%=      5-min Rain = 0
KPD2 240653Z 12009KT 20/11 A2982 RMK A01 T01980111  RH  057%=      5-min Rain = 0
KPD2 240654Z 13007KT 20/11 A2982 RMK A01 T01980112  RH  058%=      5-min Rain = 0
KPD2 240655Z 12008KT 20/11 A2982 RMK A01 T01980113  RH  058%=      5-min Rain = 0
KPD2 240656Z 12010KT 20/11 A2982 RMK A01 T01970112  RH  058%=      5-min Rain = 0
KPD2 240657Z 13010KT 20/11 A2982 RMK A01 T01970112  RH  058%=      5-min Rain = 0
KPD2 240658Z 13012KT 20/11 A2982 RMK A01 T01970112  RH  058%=      5-min Rain = 0
KPD2 240659Z 13011KT 20/11 A2982 RMK A01 T01960112  RH  058%=      5-min Rain = 0
KPD2 240700Z 12009KT 20/11 A2982 RMK A01 T01960113  RH  058%=      5-min Rain = 0
KPD2 240701Z 12008KT 20/11 A2982 RMK A01 T01960113  RH  059%=      5-min Rain = 0
KPD2 240702Z 12008KT 20/11 A2982 RMK A01 T01960113  RH  059%=      5-min Rain = 0
KPD2 240703Z 13008KT 20/11 A2982 RMK A01 T01950112  RH  059%=      5-min Rain = 0
KPD2 240704Z 13008KT 20/11 A2982 RMK A01 T01950113  RH  059%=      5-min Rain = 0
KPD2 240705Z 12006G11KT 19/11 A2982 RMK A01 T01940113  RH  059%=      5-min Rain = 0
KPD2 240706Z 12006KT 19/11 A2982 RMK A01 T01940113  RH  059%=      5-min Rain = 0
KPD2 240707Z 12006KT 19/11 A2982 RMK A01 T01940112  RH  059%=      5-min Rain = 0
KPD2 240708Z 12006G11KT 19/11 A2983 RMK A01 T01930112  RH  059%=      5-min Rain = 0
KPD2 240709Z 13007KT 19/11 A2983 RMK A01 T01930111  RH  059%=      5-min Rain = 0
KPD2 240710Z 12008KT 19/11 A2983 RMK A01 T01930111  RH  059%=      5-min Rain = 0
KPD2 240711Z 12007KT 19/11 A2983 RMK A01 T01930110  RH  058%=      5-min Rain = 0
KPD2 240712Z 12008KT 19/11 A2983 RMK A01 T01940110  RH  058%=      5-min Rain = 0
KPD2 240713Z 15007KT 19/11 A2983 RMK A01 T01940110  RH  058%=      5-min Rain = 0
KPD2 240714Z 14007KT 20/11 A2983 RMK A01 T01950111  RH  058%=      5-min Rain = 0
KPD2 240715Z 14008KT 19/11 A2983 RMK A01 T01940111  RH  058%=      5-min Rain = 0
KPD2 240716Z 14008KT 19/11 A2983 RMK A01 T01940111  RH  059%=      5-min Rain = 0
KPD2 240717Z 14008KT 19/11 A2983 RMK A01 T01930111  RH  059%=      5-min Rain = 0
KPD2 240718Z 14008KT 19/11 A2983 RMK A01 T01930111  RH  059%=      5-min Rain = 0
KPD2 240719Z 13008KT 19/11 A2983 RMK A01 T01920111  RH  059%=      5-min Rain = 0
KPD2 240720Z 13008KT 19/11 A2983 RMK A01 T01920109  RH  059%=      5-min Rain = 0
KPD2 240721Z 14009KT 19/11 A2983 RMK A01 T01930109  RH  058%=      5-min Rain = 0
KPD2 240722Z 14008KT 19/11 A2984 RMK A01 T01940109  RH  058%=      5-min Rain = 0
KPD2 240723Z 14010KT 19/11 A2984 RMK A01 T01940110  RH  058%=      5-min Rain = 0
KPD2 240724Z 13009KT 20/11 A2983 RMK A01 T01950110  RH  058%=      5-min Rain = 0
KPD2 240725Z 13008KT 20/11 A2983 RMK A01 T01950110  RH  058%=      5-min Rain = 0
KPD2 240726Z 13009KT 19/11 A2984 RMK A01 T01940110  RH  058%=      5-min Rain = 0
KPD2 240727Z 14008KT 20/11 A2984 RMK A01 T01950110  RH  058%=      5-min Rain = 0
KPD2 240728Z 14009KT 19/11 A2984 RMK A01 T01940110  RH  058%=      5-min Rain = 0
KPD2 240729Z 14008KT 20/11 A2984 RMK A01 T01950110  RH  058%=      5-min Rain = 0
KPD2 240730Z 14010KT 20/11 A2984 RMK A01 T01950110  RH  058%=      5-min Rain = 0
KPD2 240731Z 13010KT 19/11 A2984 RMK A01 T01940110  RH  058%=      5-min Rain = 0
KPD2 240732Z 12008KT 19/11 A2984 RMK A01 T01940111  RH  058%=      5-min Rain = 0
KPD2 240733Z 13008KT 19/11 A2984 RMK A01 T01940110  RH  058%=      5-min Rain = 0
KPD2 240734Z 14009KT 19/11 A2984 RMK A01 T01930110  RH  058%=      5-min Rain = 0
KPD2 240735Z 13008KT 19/11 A2984 RMK A01 T01940110  RH  058%=      5-min Rain = 0
KPD2 240736Z 13008KT 19/11 A2983 RMK A01 T01940110  RH  058%=      5-min Rain = 0
KPD2 240737Z 13008KT 19/11 A2984 RMK A01 T01930110  RH  059%=      5-min Rain = 0
KPD2 240738Z 13007KT 19/11 A2983 RMK A01 T01930110  RH  059%=      5-min Rain = 0
KPD2 240739Z 13009KT 19/11 A2983 RMK A01 T01930110  RH  059%=      5-min Rain = 0
KPD2 240740Z 13009KT 19/11 A2983 RMK A01 T01920110  RH  059%=      5-min Rain = 0
KPD2 240741Z 13013KT 19/11 A2983 RMK A01 T01920110  RH  059%=      5-min Rain = 0
KPD2 240742Z 13010KT 19/11 A2983 RMK A01 T01920110  RH  059%=      5-min Rain = 0
KPD2 240743Z 13009KT 19/11 A2983 RMK A01 T01930110  RH  059%=      5-min Rain = 0
KPD2 240744Z 12007KT 19/11 A2983 RMK A01 T01920109  RH  059%=      5-min Rain = 0
KPD2 240745Z 12007KT 19/11 A2983 RMK A01 T01930109  RH  059%=      5-min Rain = 0
KPD2 240746Z 13008KT 19/11 A2983 RMK A01 T01920109  RH  059%=      5-min Rain = 0
KPD2 240747Z 13008KT 19/11 A2983 RMK A01 T01920109  RH  059%=      5-min Rain = 0
KPD2 240748Z 13009KT 19/11 A2983 RMK A01 T01920109  RH  059%=      5-min Rain = 0
KPD2 240749Z 14007KT 19/11 A2983 RMK A01 T01920109  RH  059%=      5-min Rain = 0
KPD2 240750Z 13008KT 19/11 A2983 RMK A01 T01920109  RH  059%=      5-min Rain = 0
KPD2 240751Z 13008KT 19/11 A2983 RMK A01 T01920109  RH  059%=      5-min Rain = 0
KPD2 240752Z 14007KT 19/11 A2983 RMK A01 T01910109  RH  059%=      5-min Rain = 0
KPD2 240753Z 12008KT 19/11 A2983 RMK A01 T01910109  RH  059%=      5-min Rain = 0
KPD2 240754Z 12007KT 19/11 A2983 RMK A01 T01910109  RH  059%=      5-min Rain = 0
KPD2 240755Z 14007KT 19/11 A2983 RMK A01 T01910109  RH  059%=      5-min Rain = 0
KPD2 240756Z 14008KT 19/11 A2983 RMK A01 T01910108  RH  059%=      5-min Rain = 0
KPD2 240757Z 14006KT 19/11 A2983 RMK A01 T01910108  RH  059%=      5-min Rain = 0
KPD2 240758Z 14006KT 19/11 A2983 RMK A01 T01910108  RH  059%=      5-min Rain = 0
KPD2 240759Z 13007KT 19/11 A2983 RMK A01 T01910108  RH  059%=      5-min Rain = 0
KPD2 240800Z 13008KT 19/11 A2983 RMK A01 T01900108  RH  059%=      5-min Rain = 0
KPD2 240801Z 13008KT 19/11 A2983 RMK A01 T01900108  RH  059%=      5-min Rain = 0
KPD2 240802Z 13007KT 19/11 A2983 RMK A01 T01900108  RH  059%=      5-min Rain = 0
KPD2 240803Z 13008KT 19/11 A2983 RMK A01 T01900108  RH  059%=      5-min Rain = 0
KPD2 240804Z 13009KT 19/11 A2983 RMK A01 T01890108  RH  059%=      5-min Rain = 0
KPD2 240805Z 12008KT 19/11 A2983 RMK A01 T01890108  RH  059%=      5-min Rain = 0
KPD2 240806Z 13007KT 19/11 A2983 RMK A01 T01890108  RH  059%=      5-min Rain = 0
KPD2 240807Z 13007KT 19/11 A2983 RMK A01 T01900108  RH  059%=      5-min Rain = 0
KPD2 240808Z 13007KT 19/11 A2983 RMK A01 T01890108  RH  059%=      5-min Rain = 0
KPD2 240809Z 13008KT 19/11 A2983 RMK A01 T01890108  RH  059%=      5-min Rain = 0
KPD2 240810Z 14006KT 19/11 A2983 RMK A01 T01890108  RH  059%=      5-min Rain = 0
KPD2 240811Z 14005KT 19/11 A2983 RMK A01 T01880108  RH  059%=      5-min Rain = 0
KPD2 240812Z 14006KT 19/11 A2983 RMK A01 T01880108  RH  059%=      5-min Rain = 0
KPD2 240813Z 14006KT 19/11 A2983 RMK A01 T01880108  RH  060%=      5-min Rain = 0
KPD2 240814Z 14006KT 19/11 A2983 RMK A01 T01880108  RH  060%=      5-min Rain = 0
KPD2 240815Z 14006KT 19/11 A2983 RMK A01 T01880108  RH  060%=      5-min Rain = 0
KPD2 240816Z 13006KT 19/11 A2983 RMK A01 T01880108  RH  060%=      5-min Rain = 0
KPD2 240817Z 13006KT 19/11 A2983 RMK A01 T01870108  RH  060%=      5-min Rain = 0
KPD2 240818Z 14007KT 19/11 A2983 RMK A01 T01870108  RH  060%=      5-min Rain = 0
KPD2 240819Z 13008KT 19/11 A2983 RMK A01 T01860108  RH  060%=      5-min Rain = 0
KPD2 240820Z 13007KT 19/11 A2983 RMK A01 T01860108  RH  060%=      5-min Rain = 0
KPD2 240821Z 13007KT 19/11 A2983 RMK A01 T01860108  RH  060%=      5-min Rain = 0
KPD2 240822Z 14006KT 19/11 A2983 RMK A01 T01860107  RH  060%=      5-min Rain = 0
KPD2 240823Z 14006KT 19/11 A2984 RMK A01 T01860107  RH  060%=      5-min Rain = 0
KPD2 240824Z 14007KT 19/11 A2984 RMK A01 T01860107  RH  060%=      5-min Rain = 0
KPD2 240825Z 14007KT 19/11 A2984 RMK A01 T01860107  RH  060%=      5-min Rain = 0
KPD2 240826Z 15007KT 19/11 A2984 RMK A01 T01860107  RH  060%=      5-min Rain = 0
KPD2 240827Z 16007KT 19/11 A2984 RMK A01 T01860107  RH  060%=      5-min Rain = 0
KPD2 240828Z 15008KT 19/11 A2983 RMK A01 T01860107  RH  060%=      5-min Rain = 0
KPD2 240829Z 14009KT 19/11 A2983 RMK A01 T01870107  RH  060%=      5-min Rain = 0
KPD2 240830Z 15006KT 19/11 A2983 RMK A01 T01880107  RH  059%=      5-min Rain = 0
KPD2 240831Z 14008KT 19/11 A2983 RMK A01 T01890107  RH  059%=      5-min Rain = 0
KPD2 240832Z 14007KT 19/11 A2983 RMK A01 T01890107  RH  059%=      5-min Rain = 0
KPD2 240833Z 14008KT 19/11 A2983 RMK A01 T01890107  RH  059%=      5-min Rain = 0
KPD2 240834Z 14007KT 19/11 A2983 RMK A01 T01890107  RH  059%=      5-min Rain = 0
KPD2 240835Z 14008KT 19/11 A2983 RMK A01 T01890107  RH  059%=      5-min Rain = 0
KPD2 240836Z 15007KT 19/11 A2983 RMK A01 T01880107  RH  059%=      5-min Rain = 0
KPD2 240837Z 15009KT 19/11 A2984 RMK A01 T01880107  RH  059%=      5-min Rain = 0
KPD2 240838Z 15010KT 19/11 A2984 RMK A01 T01880107  RH  059%=      5-min Rain = 0
KPD2 240839Z 15010KT 19/11 A2984 RMK A01 T01880107  RH  059%=      5-min Rain = 0
KPD2 240840Z 15009KT 19/11 A2984 RMK A01 T01890107  RH  059%=      5-min Rain = 0
KPD2 240841Z 15009KT 19/11 A2984 RMK A01 T01900108  RH  059%=      5-min Rain = 0
KPD2 240842Z 16009KT 19/11 A2984 RMK A01 T01900108  RH  059%=      5-min Rain = 0
KPD2 240843Z 15009KT 19/11 A2983 RMK A01 T01900108  RH  059%=      5-min Rain = 0
KPD2 240844Z 15009KT 19/11 A2983 RMK A01 T01900108  RH  059%=      5-min Rain = 0
KPD2 240845Z 15009KT 19/11 A2983 RMK A01 T01900108  RH  059%=      5-min Rain = 0
KPD2 240846Z 15008KT 19/11 A2983 RMK A01 T01890108  RH  059%=      5-min Rain = 0
KPD2 240847Z 15007KT 19/11 A2983 RMK A01 T01890108  RH  059%=      5-min Rain = 0
KPD2 240848Z 15009KT 19/11 A2983 RMK A01 T01880108  RH  060%=      5-min Rain = 0
KPD2 240849Z 15008KT 19/11 A2983 RMK A01 T01880108  RH  060%=      5-min Rain = 0
KPD2 240850Z 15007KT 19/11 A2983 RMK A01 T01880108  RH  060%=      5-min Rain = 0
KPD2 240851Z 16008KT 19/11 A2983 RMK A01 T01870108  RH  060%=      5-min Rain = 0
KPD2 240852Z 16007KT 19/11 A2983 RMK A01 T01870108  RH  060%=      5-min Rain = 0
KPD2 240853Z 15008KT 19/11 A2983 RMK A01 T01870108  RH  060%=      5-min Rain = 0
KPD2 240854Z 16009KT 19/11 A2983 RMK A01 T01870108  RH  060%=      5-min Rain = 0
KPD2 240855Z 15007KT 19/11 A2984 RMK A01 T01870108  RH  060%=      5-min Rain = 0
KPD2 240856Z 16008KT 19/11 A2984 RMK A01 T01870108  RH  060%=      5-min Rain = 0
KPD2 240857Z 16008KT 19/11 A2984 RMK A01 T01860108  RH  060%=      5-min Rain = 0
KPD2 240858Z 16008KT 19/11 A2984 RMK A01 T01860108  RH  060%=      5-min Rain = 0
KPD2 240859Z 16006KT 19/11 A2984 RMK A01 T01860108  RH  060%=      5-min Rain = 0
KPD2 240900Z 15009KT 19/11 A2984 RMK A01 T01860108  RH  060%=      5-min Rain = 0
KPD2 240901Z 16008KT 19/11 A2984 RMK A01 T01860108  RH  060%=      5-min Rain = 0
KPD2 240902Z 15008KT 19/11 A2984 RMK A01 T01860108  RH  060%=      5-min Rain = 0
KPD2 240903Z 16008KT 19/11 A2984 RMK A01 T01860108  RH  060%=      5-min Rain = 0
KPD2 240904Z 15006KT 19/11 A2984 RMK A01 T01860108  RH  060%=      5-min Rain = 0
KPD2 240905Z 16007KT 19/11 A2984 RMK A01 T01860108  RH  061%=      5-min Rain = 0
KPD2 240906Z 16007KT 19/11 A2984 RMK A01 T01850108  RH  061%=      5-min Rain = 0
KPD2 240907Z 16007KT 19/11 A2984 RMK A01 T01850108  RH  061%=      5-min Rain = 0
KPD2 240908Z 16007KT 19/11 A2984 RMK A01 T01850108  RH  061%=      5-min Rain = 0
KPD2 240909Z 16008KT 19/11 A2984 RMK A01 T01850108  RH  061%=      5-min Rain = 0
KPD2 240910Z 16007KT 19/11 A2984 RMK A01 T01850108  RH  061%=      5-min Rain = 0
KPD2 240911Z 16006KT 19/11 A2984 RMK A01 T01850108  RH  061%=      5-min Rain = 0
KPD2 240912Z 15007KT 19/11 A2984 RMK A01 T01850108  RH  061%=      5-min Rain = 0
KPD2 240913Z 16007KT 19/11 A2984 RMK A01 T01850108  RH  061%=      5-min Rain = 0
KPD2 240914Z 15007KT 18/11 A2984 RMK A01 T01840108  RH  061%=      5-min Rain = 0
KPD2 240915Z 15008KT 18/11 A2984 RMK A01 T01840108  RH  061%=      5-min Rain = 0
KPD2 240916Z 15007KT 18/11 A2984 RMK A01 T01840107  RH  061%=      5-min Rain = 0
KPD2 240917Z 15007KT 18/11 A2984 RMK A01 T01830107  RH  061%=      5-min Rain = 0
KPD2 240918Z 16006KT 18/11 A2984 RMK A01 T01830107  RH  061%=      5-min Rain = 0
KPD2 240919Z 16007KT 18/11 A2984 RMK A01 T01830107  RH  061%=      5-min Rain = 0
KPD2 240920Z 16007KT 18/11 A2984 RMK A01 T01830107  RH  061%=      5-min Rain = 0
KPD2 240921Z 16006KT 18/11 A2984 RMK A01 T01830107  RH  061%=      5-min Rain = 0
KPD2 240922Z 15006KT 18/11 A2984 RMK A01 T01830107  RH  061%=      5-min Rain = 0
KPD2 240923Z 16006KT 18/11 A2984 RMK A01 T01820107  RH  061%=      5-min Rain = 0
KPD2 240924Z 16006KT 18/11 A2984 RMK A01 T01820107  RH  061%=      5-min Rain = 0
KPD2 240925Z 16007KT 18/11 A2984 RMK A01 T01820106  RH  061%=      5-min Rain = 0
KPD2 240926Z 16006KT 18/11 A2984 RMK A01 T01820106  RH  061%=      5-min Rain = 0
KPD2 240927Z 16007KT 18/11 A2984 RMK A01 T01820106  RH  061%=      5-min Rain = 0
KPD2 240928Z 16007KT 18/11 A2984 RMK A01 T01820106  RH  061%=      5-min Rain = 0
KPD2 240929Z 16007KT 18/11 A2984 RMK A01 T01820106  RH  061%=      5-min Rain = 0
KPD2 240930Z 16006KT 18/11 A2984 RMK A01 T01820105  RH  061%=      5-min Rain = 0
KPD2 240931Z 16008KT 18/11 A2984 RMK A01 T01820106  RH  061%=      5-min Rain = 0
KPD2 240932Z 16008KT 18/11 A2984 RMK A01 T01820106  RH  061%=      5-min Rain = 0
KPD2 240933Z 16006KT 18/11 A2984 RMK A01 T01830106  RH  061%=      5-min Rain = 0
KPD2 240934Z 16008KT 18/11 A2984 RMK A01 T01830106  RH  061%=      5-min Rain = 0
KPD2 240935Z 16007KT 18/11 A2984 RMK A01 T01830106  RH  061%=      5-min Rain = 0
KPD2 240936Z 16006KT 18/11 A2984 RMK A01 T01830106  RH  061%=      5-min Rain = 0
KPD2 240937Z 16006KT 18/11 A2984 RMK A01 T01840107  RH  061%=      5-min Rain = 0
KPD2 240938Z 16007KT 18/11 A2984 RMK A01 T01840107  RH  061%=      5-min Rain = 0
KPD2 240939Z 16007KT 18/11 A2984 RMK A01 T01840107  RH  061%=      5-min Rain = 0
KPD2 240940Z 15006KT 18/11 A2984 RMK A01 T01840107  RH  061%=      5-min Rain = 0
KPD2 240941Z 16005KT 18/11 A2984 RMK A01 T01840107  RH  061%=      5-min Rain = 0
KPD2 240942Z 16006KT 18/11 A2984 RMK A01 T01840107  RH  061%=      5-min Rain = 0
KPD2 240943Z 16006KT 18/11 A2984 RMK A01 T01840107  RH  061%=      5-min Rain = 0
KPD2 240944Z 16006KT 18/11 A2984 RMK A01 T01840108  RH  061%=      5-min Rain = 0
KPD2 240945Z 15006KT 19/11 A2984 RMK A01 T01850108  RH  061%=      5-min Rain = 0
KPD2 240946Z 16006KT 19/11 A2984 RMK A01 T01850108  RH  061%=      5-min Rain = 0
KPD2 240947Z 15006KT 18/11 A2984 RMK A01 T01840108  RH  061%=      5-min Rain = 0
KPD2 240948Z 16005KT 19/11 A2984 RMK A01 T01850108  RH  061%=      5-min Rain = 0
KPD2 240949Z 16005KT 19/11 A2984 RMK A01 T01850108  RH  061%=      5-min Rain = 0
KPD2 240950Z 16008KT 19/11 A2984 RMK A01 T01850108  RH  061%=      5-min Rain = 0
KPD2 240951Z 16006KT 19/11 A2984 RMK A01 T01850108  RH  061%=      5-min Rain = 0
KPD2 240952Z 15007KT 19/11 A2984 RMK A01 T01860109  RH  061%=      5-min Rain = 0
KPD2 240953Z 16007KT 19/11 A2984 RMK A01 T01850109  RH  061%=      5-min Rain = 0
KPD2 240954Z 17007KT 19/11 A2984 RMK A01 T01860109  RH  061%=      5-min Rain = 0
KPD2 240955Z 17008KT 19/11 A2984 RMK A01 T01860109  RH  061%=      5-min Rain = 0
KPD2 240956Z 17008KT 19/11 A2984 RMK A01 T01860109  RH  061%=      5-min Rain = 0
KPD2 240957Z 16007KT 19/11 A2984 RMK A01 T01860109  RH  061%=      5-min Rain = 0
KPD2 240958Z 16008KT 19/11 A2984 RMK A01 T01870110  RH  061%=      5-min Rain = 0
KPD2 240959Z 15009KT 19/11 A2984 RMK A01 T01870110  RH  061%=      5-min Rain = 0
KPD2 241000Z 16008KT 19/11 A2984 RMK A01 T01870111  RH  061%=      5-min Rain = 0
KPD2 241001Z 16008KT 19/11 A2984 RMK A01 T01860110  RH  061%=      5-min Rain = 0
KPD2 241002Z 16005KT 19/11 A2984 RMK A01 T01870111  RH  061%=      5-min Rain = 0
KPD2 241003Z 16005KT 19/11 A2984 RMK A01 T01870111  RH  061%=      5-min Rain = 0
KPD2 241004Z 16007KT 19/11 A2984 RMK A01 T01870111  RH  061%=      5-min Rain = 0
KPD2 241005Z 16006KT 19/11 A2984 RMK A01 T01870112  RH  062%=      5-min Rain = 0
KPD2 241006Z 15007KT 19/11 A2983 RMK A01 T01870112  RH  062%=      5-min Rain = 0
KPD2 241007Z 17008KT 19/11 A2983 RMK A01 T01870113  RH  062%=      5-min Rain = 0
KPD2 241008Z 17007KT 19/11 A2983 RMK A01 T01870114  RH  062%=      5-min Rain = 0
KPD2 241009Z 16007KT 19/11 A2983 RMK A01 T01860113  RH  062%=      5-min Rain = 0
KPD2 241010Z 16007KT 19/11 A2983 RMK A01 T01860114  RH  063%=      5-min Rain = 0
KPD2 241011Z 16009KT 19/11 A2983 RMK A01 T01860114  RH  063%=      5-min Rain = 0
KPD2 241012Z 15009KT 19/11 A2983 RMK A01 T01860114  RH  063%=      5-min Rain = 0
KPD2 241013Z 16010KT 19/11 A2983 RMK A01 T01860114  RH  063%=      5-min Rain = 0
KPD2 241014Z 16010KT 19/12 A2983 RMK A01 T01860115  RH  063%=      5-min Rain = 0
KPD2 241015Z 15009KT 19/12 A2983 RMK A01 T01850115  RH  064%=      5-min Rain = 0
KPD2 241016Z 15008KT 18/12 A2983 RMK A01 T01840115  RH  064%=      5-min Rain = 0
KPD2 241017Z 15009KT 18/12 A2983 RMK A01 T01840115  RH  064%=      5-min Rain = 0
KPD2 241018Z 16009KT 18/12 A2983 RMK A01 T01830115  RH  064%=      5-min Rain = 0
KPD2 241019Z 16008KT 18/12 A2984 RMK A01 T01830115  RH  064%=      5-min Rain = 0
KPD2 241020Z 16010KT 18/12 A2984 RMK A01 T01830115  RH  065%=      5-min Rain = 0
KPD2 241021Z 16009KT 18/12 A2984 RMK A01 T01830115  RH  065%=      5-min Rain = 0
KPD2 241022Z 16009KT 18/12 A2983 RMK A01 T01830115  RH  065%=      5-min Rain = 0
KPD2 241023Z 17010KT 18/12 A2984 RMK A01 T01820115  RH  065%=      5-min Rain = 0
KPD2 241024Z 17010KT 18/12 A2984 RMK A01 T01820115  RH  065%=      5-min Rain = 0
KPD2 241025Z 16008KT 18/12 A2984 RMK A01 T01820115  RH  065%=      5-min Rain = 0
KPD2 241026Z 17007KT 18/12 A2984 RMK A01 T01820115  RH  065%=      5-min Rain = 0
KPD2 241027Z 16008KT 18/12 A2984 RMK A01 T01820115  RH  065%=      5-min Rain = 0
KPD2 241028Z 17008KT 18/12 A2983 RMK A01 T01810116  RH  065%=      5-min Rain = 0
KPD2 241029Z 16007KT 18/12 A2983 RMK A01 T01820116  RH  066%=      5-min Rain = 0
KPD2 241030Z 17008KT 18/12 A2984 RMK A01 T01810116  RH  066%=      5-min Rain = 0
KPD2 241031Z 16008KT 18/12 A2984 RMK A01 T01810116  RH  066%=      5-min Rain = 0
KPD2 241032Z 16010KT 18/12 A2984 RMK A01 T01800116  RH  066%=      5-min Rain = 0
KPD2 241033Z 16008KT 18/12 A2984 RMK A01 T01800117  RH  066%=      5-min Rain = 0
KPD2 241034Z 17008KT 18/12 A2984 RMK A01 T01800117  RH  066%=      5-min Rain = 0
KPD2 241035Z 16007KT 18/12 A2984 RMK A01 T01800116  RH  066%=      5-min Rain = 0
KPD2 241036Z 16007KT 18/12 A2984 RMK A01 T01790117  RH  067%=      5-min Rain = 0
KPD2 241037Z 16007KT 18/12 A2984 RMK A01 T01790116  RH  067%=      5-min Rain = 0
KPD2 241038Z 17008KT 18/12 A2984 RMK A01 T01780116  RH  067%=      5-min Rain = 0
KPD2 241039Z 16009KT 18/12 A2984 RMK A01 T01780117  RH  067%=      5-min Rain = 0
KPD2 241040Z 15008KT 18/12 A2984 RMK A01 T01780117  RH  067%=      5-min Rain = 0
KPD2 241041Z 15007KT 18/12 A2984 RMK A01 T01780117  RH  068%=      5-min Rain = 0
KPD2 241042Z 15006KT 18/12 A2984 RMK A01 T01780117  RH  068%=      5-min Rain = 0
KPD2 241043Z 16007KT 18/12 A2984 RMK A01 T01780117  RH  068%=      5-min Rain = 0
KPD2 241044Z 16007KT 18/12 A2984 RMK A01 T01770117  RH  068%=      5-min Rain = 0
KPD2 241045Z 16008KT 18/12 A2984 RMK A01 T01770118  RH  068%=      5-min Rain = 0
KPD2 241046Z 14007KT 18/12 A2984 RMK A01 T01770118  RH  068%=      5-min Rain = 0
KPD2 241047Z 14007KT 18/12 A2984 RMK A01 T01770118  RH  068%=      5-min Rain = 0
KPD2 241048Z 15006KT 18/12 A2984 RMK A01 T01770118  RH  068%=      5-min Rain = 0
KPD2 241049Z 15008KT 18/12 A2984 RMK A01 T01770118  RH  069%=      5-min Rain = 0
KPD2 241050Z 14009KT 18/12 A2984 RMK A01 T01760118  RH  069%=      5-min Rain = 0
KPD2 241051Z 14010KT 18/12 A2984 RMK A01 T01760118  RH  069%=      5-min Rain = 0
KPD2 241052Z 15008KT 18/12 A2984 RMK A01 T01760118  RH  069%=      5-min Rain = 0
KPD2 241053Z 15005KT 18/12 A2984 RMK A01 T01770118  RH  069%=      5-min Rain = 0
KPD2 241054Z 14006KT 18/12 A2984 RMK A01 T01770118  RH  069%=      5-min Rain = 0
KPD2 241055Z 14007KT 18/12 A2984 RMK A01 T01760119  RH  069%=      5-min Rain = 0
KPD2 241056Z 14007KT 18/12 A2984 RMK A01 T01760118  RH  069%=      5-min Rain = 0
KPD2 241057Z 14006KT 18/12 A2984 RMK A01 T01750118  RH  069%=      5-min Rain = 0
KPD2 241058Z 13006KT 18/12 A2984 RMK A01 T01750119  RH  069%=      5-min Rain = 0
KPD2 241059Z 12006KT 17/12 A2984 RMK A01 T01740118  RH  070%=      5-min Rain = 0
KPD2 241100Z 12006KT 17/12 A2984 RMK A01 T01740118  RH  070%=      5-min Rain = 0
KPD2 241101Z 12006KT 17/12 A2984 RMK A01 T01730118  RH  070%=      5-min Rain = 0
KPD2 241102Z 13006KT 17/12 A2984 RMK A01 T01730118  RH  070%=      5-min Rain = 0
KPD2 241103Z 13006KT 17/12 A2984 RMK A01 T01730119  RH  070%=      5-min Rain = 0
KPD2 241104Z 13006KT 17/12 A2984 RMK A01 T01720119  RH  071%=      5-min Rain = 0
KPD2 241105Z 12006KT 17/12 A2984 RMK A01 T01720119  RH  071%=      5-min Rain = 0
KPD2 241106Z 13006KT 17/12 A2983 RMK A01 T01720119  RH  071%=      5-min Rain = 0
KPD2 241107Z 13005KT 17/12 A2984 RMK A01 T01720119  RH  071%=      5-min Rain = 0
KPD2 241108Z 13005KT 17/12 A2983 RMK A01 T01710119  RH  071%=      5-min Rain = 0
KPD2 241109Z 13004KT 17/12 A2983 RMK A01 T01710119  RH  071%=      5-min Rain = 0
KPD2 241110Z 13005KT 17/12 A2983 RMK A01 T01710119  RH  072%=      5-min Rain = 0
KPD2 241111Z 13005KT 17/12 A2984 RMK A01 T01700119  RH  072%=      5-min Rain = 0
KPD2 241112Z 12005KT 17/12 A2983 RMK A01 T01710120  RH  072%=      5-min Rain = 0
KPD2 241113Z 13005KT 17/12 A2984 RMK A01 T01700119  RH  072%=      5-min Rain = 0
KPD2 241114Z 12005KT 17/12 A2984 RMK A01 T01700119  RH  072%=      5-min Rain = 0
KPD2 241115Z 13004KT 17/12 A2984 RMK A01 T01700120  RH  072%=      5-min Rain = 0
KPD2 241116Z 13003KT 17/12 A2983 RMK A01 T01690120  RH  072%=      5-min Rain = 0
KPD2 241117Z 12004KT 17/12 A2983 RMK A01 T01690119  RH  073%=      5-min Rain = 0
KPD2 241118Z 13004KT 17/12 A2983 RMK A01 T01680119  RH  073%=      5-min Rain = 0
KPD2 241119Z 12005KT 17/12 A2983 RMK A01 T01680119  RH  073%=      5-min Rain = 0
KPD2 241120Z 12004KT 17/12 A2983 RMK A01 T01680119  RH  073%=      5-min Rain = 0
KPD2 241121Z 13004KT 17/12 A2984 RMK A01 T01670119  RH  073%=      5-min Rain = 0
KPD2 241122Z 13005KT 17/12 A2984 RMK A01 T01670120  RH  074%=      5-min Rain = 0
KPD2 241123Z 13005KT 17/12 A2984 RMK A01 T01670119  RH  074%=      5-min Rain = 0
KPD2 241124Z 12005KT 17/12 A2984 RMK A01 T01670120  RH  074%=      5-min Rain = 0
KPD2 241125Z 12005KT 17/12 A2984 RMK A01 T01670120  RH  074%=      5-min Rain = 0
KPD2 241126Z 12005KT 17/12 A2984 RMK A01 T01660120  RH  074%=      5-min Rain = 0
KPD2 241127Z 12005KT 17/12 A2984 RMK A01 T01660120  RH  074%=      5-min Rain = 0
KPD2 241128Z 12006KT 17/12 A2984 RMK A01 T01660120  RH  074%=      5-min Rain = 0
KPD2 241129Z 13005KT 17/12 A2984 RMK A01 T01660120  RH  074%=      5-min Rain = 0
KPD2 241130Z 12005KT 17/12 A2984 RMK A01 T01660120  RH  074%=      5-min Rain = 0
KPD2 241131Z 13005KT 17/12 A2984 RMK A01 T01660121  RH  074%=      5-min Rain = 0
KPD2 241132Z 12005KT 17/12 A2984 RMK A01 T01660121  RH  075%=      5-min Rain = 0
KPD2 241133Z 12005KT 17/12 A2984 RMK A01 T01660121  RH  075%=      5-min Rain = 0
KPD2 241134Z 12006KT 17/12 A2984 RMK A01 T01660120  RH  075%=      5-min Rain = 0
KPD2 241135Z 12006KT 17/12 A2984 RMK A01 T01650120  RH  075%=      5-min Rain = 0
KPD2 241136Z 12005KT 17/12 A2984 RMK A01 T01650120  RH  075%=      5-min Rain = 0
KPD2 241137Z 12005KT 17/12 A2984 RMK A01 T01650120  RH  075%=      5-min Rain = 0
KPD2 241138Z 11006KT 17/12 A2984 RMK A01 T01650120  RH  075%=      5-min Rain = 0
KPD2 241139Z 12004KT 16/12 A2984 RMK A01 T01640120  RH  075%=      5-min Rain = 0
KPD2 241140Z 10005KT 17/12 A2984 RMK A01 T01650120  RH  075%=      5-min Rain = 0
KPD2 241141Z 11007KT 17/12 A2984 RMK A01 T01650120  RH  075%=      5-min Rain = 0
KPD2 241142Z 11007KT 17/12 A2984 RMK A01 T01650119  RH  074%=      5-min Rain = 0
KPD2 241143Z 12008KT 17/12 A2984 RMK A01 T01660119  RH  074%=      5-min Rain = 0
KPD2 241144Z 12008KT 17/12 A2984 RMK A01 T01670119  RH  073%=      5-min Rain = 0
KPD2 241145Z 12009KT 17/12 A2984 RMK A01 T01680119  RH  073%=      5-min Rain = 0
KPD2 241146Z 12005KT 17/12 A2984 RMK A01 T01690119  RH  073%=      5-min Rain = 0
KPD2 241147Z 13006KT 17/12 A2984 RMK A01 T01690119  RH  072%=      5-min Rain = 0
KPD2 241148Z 13005KT 17/12 A2984 RMK A01 T01690119  RH  072%=      5-min Rain = 0
KPD2 241149Z 12007KT 17/12 A2983 RMK A01 T01690119  RH  072%=      5-min Rain = 0
KPD2 241150Z 10005KT 17/12 A2983 RMK A01 T01690119  RH  072%=      5-min Rain = 0
KPD2 241151Z 12007KT 17/12 A2983 RMK A01 T01690119  RH  072%=      5-min Rain = 0
KPD2 241152Z 12009KT 17/12 A2983 RMK A01 T01690118  RH  072%=      5-min Rain = 0
KPD2 241153Z 12006KT 17/12 A2983 RMK A01 T01690118  RH  072%=      5-min Rain = 0
KPD2 241154Z 13006KT 17/12 A2983 RMK A01 T01700118  RH  072%=      5-min Rain = 0
KPD2 241155Z 13007KT 17/12 A2984 RMK A01 T01700118  RH  072%=      5-min Rain = 0
KPD2 241156Z 13008KT 17/12 A2984 RMK A01 T01700118  RH  072%=      5-min Rain = 0
KPD2 241157Z 13006KT 17/12 A2984 RMK A01 T01700118  RH  072%=      5-min Rain = 0
KPD2 241158Z 13005KT 17/12 A2984 RMK A01 T01690118  RH  072%=      5-min Rain = 0
KPD2 241159Z 12004KT 17/12 A2983 RMK A01 T01690118  RH  072%=      5-min Rain = 0
KPD2 241200Z 13004KT 17/12 A2983 RMK A01 T01690118  RH  072%=      5-min Rain = 0
KPD2 241201Z 14005KT 17/12 A2984 RMK A01 T01680118  RH  072%=      5-min Rain = 0
KPD2 241202Z 14006KT 17/12 A2984 RMK A01 T01680118  RH  072%=      5-min Rain = 0
KPD2 241203Z 12005KT 17/12 A2984 RMK A01 T01680118  RH  072%=      5-min Rain = 0
KPD2 241204Z 12004KT 17/12 A2983 RMK A01 T01680118  RH  072%=      5-min Rain = 0
KPD2 241205Z 13004KT 17/12 A2984 RMK A01 T01680118  RH  072%=      5-min Rain = 0
KPD2 241206Z 12004KT 17/12 A2983 RMK A01 T01670117  RH  072%=      5-min Rain = 0
KPD2 241207Z 14004KT 17/12 A2983 RMK A01 T01670117  RH  072%=      5-min Rain = 0
KPD2 241208Z 13003KT 17/12 A2983 RMK A01 T01670117  RH  072%=      5-min Rain = 0
KPD2 241209Z 12005KT 17/12 A2983 RMK A01 T01660117  RH  073%=      5-min Rain = 0
KPD2 241210Z 12003KT 17/12 A2983 RMK A01 T01660117  RH  073%=      5-min Rain = 0
KPD2 241211Z 10006KT 17/12 A2983 RMK A01 T01660117  RH  073%=      5-min Rain = 0
KPD2 241212Z 10005KT 17/12 A2983 RMK A01 T01660117  RH  073%=      5-min Rain = 0
KPD2 241213Z 13004KT 17/12 A2983 RMK A01 T01670117  RH  072%=      5-min Rain = 0
KPD2 241214Z 12005KT 17/12 A2983 RMK A01 T01680117  RH  072%=      5-min Rain = 0
KPD2 241215Z 11006KT 17/12 A2984 RMK A01 T01690117  RH  072%=      5-min Rain = 0
KPD2 241216Z 09005KT 17/12 A2983 RMK A01 T01680117  RH  072%=      5-min Rain = 0
KPD2 241217Z 10005KT 17/12 A2983 RMK A01 T01680117  RH  072%=      5-min Rain = 0
KPD2 241218Z 10005KT 17/12 A2983 RMK A01 T01690117  RH  072%=      5-min Rain = 0
KPD2 241219Z 10005KT 17/12 A2983 RMK A01 T01690117  RH  072%=      5-min Rain = 0
KPD2 241220Z 08005KT 17/12 A2983 RMK A01 T01690117  RH  072%=      5-min Rain = 0
KPD2 241221Z 10004KT 17/12 A2983 RMK A01 T01690117  RH  071%=      5-min Rain = 0
KPD2 241222Z 12004KT 17/12 A2983 RMK A01 T01690117  RH  071%=      5-min Rain = 0
KPD2 241223Z 09003KT 17/12 A2983 RMK A01 T01690117  RH  071%=      5-min Rain = 0
KPD2 241224Z 09005KT 17/12 A2983 RMK A01 T01690117  RH  071%=      5-min Rain = 0
KPD2 241225Z 11005KT 17/12 A2983 RMK A01 T01690117  RH  071%=      5-min Rain = 0
KPD2 241226Z 11005KT 17/12 A2983 RMK A01 T01690117  RH  071%=      5-min Rain = 0
KPD2 241227Z 09005KT 17/12 A2983 RMK A01 T01690117  RH  071%=      5-min Rain = 0
KPD2 241228Z 09005KT 17/12 A2983 RMK A01 T01700117  RH  071%=      5-min Rain = 0
KPD2 241229Z 09006KT 17/12 A2983 RMK A01 T01700117  RH  071%=      5-min Rain = 0
KPD2 241230Z 10006KT 17/12 A2983 RMK A01 T01710117  RH  071%=      5-min Rain = 0
KPD2 241231Z 12003KT 17/12 A2983 RMK A01 T01710117  RH  070%=      5-min Rain = 0
KPD2 241232Z 10003KT 17/12 A2983 RMK A01 T01720118  RH  070%=      5-min Rain = 0
KPD2 241233Z 08004KT 17/12 A2983 RMK A01 T01720117  RH  070%=      5-min Rain = 0
KPD2 241234Z 10003KT 17/12 A2983 RMK A01 T01720117  RH  070%=      5-min Rain = 0
KPD2 241235Z 10002KT 17/12 A2983 RMK A01 T01730117  RH  070%=      5-min Rain = 0
KPD2 241236Z 10004KT 17/12 A2983 RMK A01 T01730117  RH  070%=      5-min Rain = 0
KPD2 241237Z 08003KT 17/12 A2983 RMK A01 T01730117  RH  070%=      5-min Rain = 0
KPD2 241238Z 12002KT 17/12 A2983 RMK A01 T01740117  RH  069%=      5-min Rain = 0
KPD2 241239Z 08003KT 17/12 A2983 RMK A01 T01740117  RH  069%=      5-min Rain = 0
KPD2 241240Z 10004KT 17/12 A2983 RMK A01 T01740118  RH  069%=      5-min Rain = 0
KPD2 241241Z 11004KT 17/12 A2983 RMK A01 T01740118  RH  069%=      5-min Rain = 0
KPD2 241242Z 09003KT 18/12 A2983 RMK A01 T01750118  RH  069%=      5-min Rain = 0
KPD2 241243Z 14003KT 17/12 A2983 RMK A01 T01740118  RH  069%=      5-min Rain = 0
KPD2 241244Z 11002KT 18/12 A2983 RMK A01 T01750118  RH  069%=      5-min Rain = 0
KPD2 241245Z 10003KT 18/12 A2983 RMK A01 T01750118  RH  069%=      5-min Rain = 0
KPD2 241246Z 10003KT 18/12 A2983 RMK A01 T01750118  RH  069%=      5-min Rain = 0
KPD2 241247Z 11004KT 18/12 A2983 RMK A01 T01750118  RH  069%=      5-min Rain = 0
KPD2 241248Z 09003KT 18/12 A2983 RMK A01 T01750118  RH  069%=      5-min Rain = 0
KPD2 241249Z 13003KT 18/12 A2983 RMK A01 T01760119  RH  069%=      5-min Rain = 0
KPD2 241250Z 13003KT 18/12 A2983 RMK A01 T01760119  RH  069%=      5-min Rain = 0
KPD2 241251Z 12003KT 18/12 A2983 RMK A01 T01760119  RH  069%=      5-min Rain = 0
KPD2 241252Z 14006KT 18/12 A2983 RMK A01 T01760119  RH  069%=      5-min Rain = 0
KPD2 241253Z 13003KT 18/12 A2983 RMK A01 T01770119  RH  069%=      5-min Rain = 0
KPD2 241254Z 14002KT 18/12 A2983 RMK A01 T01780119  RH  068%=      5-min Rain = 0
KPD2 241255Z 15001KT 18/12 A2983 RMK A01 T01790119  RH  068%=      5-min Rain = 0
KPD2 241256Z 09006KT 18/12 A2983 RMK A01 T01800120  RH  068%=      5-min Rain = 0
KPD2 241257Z 11005KT 18/12 A2983 RMK A01 T01800119  RH  067%=      5-min Rain = 0
KPD2 241258Z 11004KT 18/12 A2983 RMK A01 T01810119  RH  067%=      5-min Rain = 0
KPD2 241259Z 12006KT 18/12 A2983 RMK A01 T01840120  RH  066%=      5-min Rain = 0
KPD2 241300Z 13006KT 19/12 A2983 RMK A01 T01860120  RH  065%=      5-min Rain = 0
KPD2 241301Z 12006KT 19/12 A2983 RMK A01 T01880120  RH  065%=      5-min Rain = 0
KPD2 241302Z 12007KT 19/12 A2983 RMK A01 T01900121  RH  064%=      5-min Rain = 0
KPD2 241303Z 11006KT 19/12 A2983 RMK A01 T01920121  RH  064%=      5-min Rain = 0
KPD2 241304Z 11007KT 19/12 A2983 RMK A01 T01930122  RH  063%=      5-min Rain = 0
KPD2 241305Z 13008KT 20/12 A2983 RMK A01 T01950121  RH  063%=      5-min Rain = 0
KPD2 241306Z 11008KT 20/12 A2983 RMK A01 T01950121  RH  062%=      5-min Rain = 0
KPD2 241307Z 11009KT 20/12 A2982 RMK A01 T01970121  RH  062%=      5-min Rain = 0
KPD2 241308Z 15007G13KT 20/12 A2982 RMK A01 T01970121  RH  061%=      5-min Rain = 0
KPD2 241309Z 14006KT 20/12 A2983 RMK A01 T01970120  RH  061%=      5-min Rain = 0
KPD2 241310Z 16006KT 20/12 A2982 RMK A01 T01980120  RH  061%=      5-min Rain = 0
KPD2 241311Z 16003KT 20/12 A2982 RMK A01 T01990121  RH  061%=      5-min Rain = 0
KPD2 241312Z 17006KT 20/12 A2982 RMK A01 T02000122  RH  061%=      5-min Rain = 0
KPD2 241313Z 19007KT 20/12 A2982 RMK A01 T02010121  RH  060%=      5-min Rain = 0
KPD2 241314Z 16003KT 20/12 A2982 RMK A01 T02010121  RH  060%=      5-min Rain = 0
KPD2 241315Z 13004KT 20/12 A2982 RMK A01 T02010121  RH  060%=      5-min Rain = 0
KPD2 241316Z 12007KT 20/12 A2982 RMK A01 T02020122  RH  060%=      5-min Rain = 0
KPD2 241317Z 11004KT 20/12 A2982 RMK A01 T02020122  RH  060%=      5-min Rain = 0
KPD2 241318Z 18003KT 20/12 A2982 RMK A01 T02040122  RH  059%=      5-min Rain = 0
KPD2 241319Z 18002KT 20/12 A2982 RMK A01 T02040121  RH  059%=      5-min Rain = 0
KPD2 241320Z 25002KT 21/12 A2982 RMK A01 T02050122  RH  059%=      5-min Rain = 0
KPD2 241321Z 18002KT 21/12 A2981 RMK A01 T02060122  RH  059%=      5-min Rain = 0
KPD2 241322Z 17002KT 21/12 A2981 RMK A01 T02070122  RH  058%=      5-min Rain = 0
KPD2 241323Z 17002KT 21/12 A2981 RMK A01 T02070121  RH  058%=      5-min Rain = 0
KPD2 241324Z 12004KT 21/12 A2981 RMK A01 T02080123  RH  058%=      5-min Rain = 0
KPD2 241325Z 17004KT 21/12 A2981 RMK A01 T02090122  RH  057%=      5-min Rain = 0
KPD2 241326Z 22004KT 21/12 A2981 RMK A01 T02100121  RH  057%=      5-min Rain = 0
KPD2 241327Z 16003KT 21/12 A2981 RMK A01 T02100121  RH  057%=      5-min Rain = 0
KPD2 241328Z 10008KT 21/12 A2981 RMK A01 T02110122  RH  057%=      5-min Rain = 0
KPD2 241329Z 11011KT 21/12 A2981 RMK A01 T02120123  RH  057%=      5-min Rain = 0
KPD2 241330Z 18006KT 21/12 A2981 RMK A01 T02130123  RH  057%=      5-min Rain = 0
KPD2 241331Z 15008KT 21/12 A2982 RMK A01 T02140123  RH  056%=      5-min Rain = 0
KPD2 241332Z 18002KT 21/12 A2981 RMK A01 T02140122  RH  055%=      5-min Rain = 0
KPD2 241333Z 16001KT 22/12 A2981 RMK A01 T02150123  RH  056%=      5-min Rain = 0
KPD2 241334Z 16006KT 22/12 A2981 RMK A01 T02160121  RH  055%=      5-min Rain = 0
KPD2 241335Z 22006G12KT 22/12 A2982 RMK A01 T02170122  RH  055%=      5-min Rain = 0
KPD2 241336Z 22006KT 22/12 A2981 RMK A01 T02170122  RH  054%=      5-min Rain = 0
KPD2 241337Z 13005KT 22/12 A2981 RMK A01 T02180122  RH  054%=      5-min Rain = 0
KPD2 241338Z 15003KT 22/12 A2982 RMK A01 T02190122  RH  054%=      5-min Rain = 0
KPD2 241339Z 32001KT 22/12 A2981 RMK A01 T02200122  RH  054%=      5-min Rain = 0
KPD2 241340Z 14006KT 22/12 A2981 RMK A01 T02200122  RH  054%=      5-min Rain = 0
KPD2 241341Z 18008KT 22/12 A2981 RMK A01 T02200122  RH  053%=      5-min Rain = 0
KPD2 241342Z 20008KT 22/12 A2982 RMK A01 T02200122  RH  054%=      5-min Rain = 0
KPD2 241343Z 18007G14KT 22/12 A2982 RMK A01 T02200122  RH  054%=      5-min Rain = 0
KPD2 241344Z 19010G17KT 22/12 A2982 RMK A01 T02200122  RH  054%=      5-min Rain = 0
KPD2 241345Z 22008G13KT 22/12 A2981 RMK A01 T02200122  RH  054%=      5-min Rain = 0
KPD2 241346Z 22010G16KT 22/12 A2982 RMK A01 T02210123  RH  054%=      5-min Rain = 0
KPD2 241347Z 21005KT 22/12 A2981 RMK A01 T02210122  RH  053%=      5-min Rain = 0
KPD2 241348Z 20006KT 22/12 A2981 RMK A01 T02210122  RH  053%=      5-min Rain = 0
KPD2 241349Z 20011G16KT 22/12 A2982 RMK A01 T02220122  RH  053%=      5-min Rain = 0
KPD2 241350Z 21011G20KT 22/12 A2981 RMK A01 T02220123  RH  053%=      5-min Rain = 0
KPD2 241351Z 21013G18KT 22/12 A2981 RMK A01 T02230123  RH  053%=      5-min Rain = 0
KPD2 241352Z 18010G17KT 22/12 A2982 RMK A01 T02230122  RH  053%=      5-min Rain = 0
KPD2 241353Z 19007KT 22/12 A2981 RMK A01 T02230123  RH  053%=      5-min Rain = 0
KPD2 241354Z 21006KT 22/12 A2981 RMK A01 T02230122  RH  053%=      5-min Rain = 0
KPD2 241355Z 22010G16KT 22/12 A2981 RMK A01 T02230123  RH  053%=      5-min Rain = 0
KPD2 241356Z 21009G14KT 22/12 A2981 RMK A01 T02240124  RH  053%=      5-min Rain = 0
KPD2 241357Z 18006G14KT 23/12 A2981 RMK A01 T02250123  RH  052%=      5-min Rain = 0
KPD2 241358Z 15010G15KT 23/12 A2981 RMK A01 T02260123  RH  052%=      5-min Rain = 0
KPD2 241359Z 18005KT 23/12 A2981 RMK A01 T02260123  RH  052%=      5-min Rain = 0
KPD2 241400Z 17005G10KT 23/12 A2981 RMK A01 T02260124  RH  053%=      5-min Rain = 0
KPD2 241401Z 18007KT 23/12 A2981 RMK A01 T02270124  RH  052%=      5-min Rain = 0
KPD2 241402Z 16007G13KT 23/12 A2981 RMK A01 T02280123  RH  052%=      5-min Rain = 0
KPD2 241403Z 17003KT 23/12 A2981 RMK A01 T02270124  RH  052%=      5-min Rain = 0
KPD2 241404Z 19005KT 23/13 A2981 RMK A01 T02280125  RH  052%=      5-min Rain = 0
KPD2 241405Z 22004KT 23/12 A2981 RMK A01 T02290124  RH  052%=      5-min Rain = 0
KPD2 241406Z 21005KT 23/13 A2981 RMK A01 T02300125  RH  052%=      5-min Rain = 0
KPD2 241407Z 17004KT 23/12 A2981 RMK A01 T02300124  RH  051%=      5-min Rain = 0
KPD2 241408Z 19004KT 23/13 A2981 RMK A01 T02300125  RH  051%=      5-min Rain = 0
KPD2 241409Z 22006KT 23/13 A2981 RMK A01 T02310125  RH  051%=      5-min Rain = 0
KPD2 241410Z 21006G12KT 23/13 A2981 RMK A01 T02320126  RH  051%=      5-min Rain = 0
KPD2 241411Z 21004KT 23/13 A2981 RMK A01 T02330125  RH  051%=      5-min Rain = 0
KPD2 241412Z 19006KT 23/13 A2981 RMK A01 T02330126  RH  051%=      5-min Rain = 0
KPD2 241413Z 19007KT 23/13 A2981 RMK A01 T02340126  RH  051%=      5-min Rain = 0
KPD2 241414Z 18004KT 24/13 A2981 RMK A01 T02350126  RH  050%=      5-min Rain = 0
KPD2 241415Z 17002KT 24/13 A2981 RMK A01 T02350127  RH  050%=      5-min Rain = 0
KPD2 241416Z 21005KT 24/13 A2981 RMK A01 T02370129  RH  051%=      5-min Rain = 0
KPD2 241417Z 22005G10KT 24/13 A2981 RMK A01 T02390129  RH  050%=      5-min Rain = 0
KPD2 241418Z 20007G13KT 24/13 A2981 RMK A01 T02400129  RH  050%=      5-min Rain = 0
KPD2 241419Z 18011G17KT 24/13 A2981 RMK A01 T02400127  RH  049%=      5-min Rain = 0
KPD2 241420Z 21011G19KT 24/13 A2981 RMK A01 T02380127  RH  050%=      5-min Rain = 0
KPD2 241421Z 21011G16KT 24/13 A2981 RMK A01 T02370127  RH  050%=      5-min Rain = 0
KPD2 241422Z 21013G18KT 24/13 A2981 RMK A01 T02360127  RH  050%=      5-min Rain = 0
KPD2 241423Z 21013G18KT 24/13 A2981 RMK A01 T02360127  RH  050%=      5-min Rain = 0
KPD2 241424Z 16009KT 24/13 A2981 RMK A01 T02360128  RH  051%=      5-min Rain = 0
KPD2 241425Z 20005G12KT 24/13 A2981 RMK A01 T02370127  RH  050%=      5-min Rain = 0
KPD2 241426Z 21007KT 24/13 A2981 RMK A01 T02380127  RH  050%=      5-min Rain = 0
KPD2 241427Z 23010G15KT 24/13 A2981 RMK A01 T02380129  RH  050%=      5-min Rain = 0
KPD2 241428Z 23007KT 24/13 A2981 RMK A01 T02390128  RH  050%=      5-min Rain = 0
KPD2 241429Z 20011G19KT 24/13 A2981 RMK A01 T02390128  RH  050%=      5-min Rain = 0
KPD2 241430Z 19008G14KT 24/13 A2981 RMK A01 T02400128  RH  050%=      5-min Rain = 0
KPD2 241431Z 23012G21KT 24/13 A2981 RMK A01 T02400129  RH  050%=      5-min Rain = 0
KPD2 241432Z 19010G20KT 24/13 A2981 RMK A01 T02400129  RH  050%=      5-min Rain = 0
KPD2 241433Z 21011KT 24/13 A2981 RMK A01 T02400128  RH  050%=      5-min Rain = 0
KPD2 241434Z 21011G16KT 24/13 A2981 RMK A01 T02400129  RH  050%=      5-min Rain = 0
KPD2 241435Z 19011KT 24/13 A2981 RMK A01 T02410129  RH  050%=      5-min Rain = 0
KPD2 241436Z 23012G17KT 24/13 A2981 RMK A01 T02410129  RH  050%=      5-min Rain = 0
KPD2 241437Z 21011G17KT 24/13 A2981 RMK A01 T02420130  RH  050%=      5-min Rain = 0
KPD2 241438Z 21009G14KT 24/13 A2981 RMK A01 T02420129  RH  049%=      5-min Rain = 0
KPD2 241439Z 19008KT 24/13 A2981 RMK A01 T02430129  RH  049%=      5-min Rain = 0
KPD2 241440Z 17006KT 24/13 A2981 RMK A01 T02420129  RH  049%=      5-min Rain = 0
KPD2 241441Z 19011KT 24/13 A2981 RMK A01 T02420130  RH  050%=      5-min Rain = 0
KPD2 241442Z 20008G14KT 24/13 A2981 RMK A01 T02420129  RH  049%=      5-min Rain = 0
KPD2 241443Z 19010G16KT 24/13 A2981 RMK A01 T02430130  RH  049%=      5-min Rain = 0
KPD2 241444Z 19016G23KT 24/13 A2981 RMK A01 T02440129  RH  049%=      5-min Rain = 0
KPD2 241445Z 17012G20KT 24/13 A2981 RMK A01 T02440129  RH  049%=      5-min Rain = 0
KPD2 241446Z 19007KT 24/13 A2981 RMK A01 T02430129  RH  049%=      5-min Rain = 0
KPD2 241447Z 19010KT 24/13 A2981 RMK A01 T02430129  RH  049%=      5-min Rain = 0
KPD2 241448Z 18013G20KT 24/13 A2981 RMK A01 T02430129  RH  049%=      5-min Rain = 0
KPD2 241449Z 19011G16KT 24/13 A2981 RMK A01 T02440129  RH  049%=      5-min Rain = 0
KPD2 241450Z 18011G16KT 24/13 A2981 RMK A01 T02440129  RH  049%=      5-min Rain = 0
KPD2 241451Z 20011G17KT 24/13 A2981 RMK A01 T02440130  RH  049%=      5-min Rain = 0
KPD2 241452Z 18011G16KT 25/13 A2981 RMK A01 T02450129  RH  048%=      5-min Rain = 0
KPD2 241453Z 18008G13KT 25/13 A2981 RMK A01 T02450130  RH  049%=      5-min Rain = 0
KPD2 241454Z 23009KT 25/13 A2981 RMK A01 T02460132  RH  049%=      5-min Rain = 0
KPD2 241455Z 23005G12KT 25/13 A2981 RMK A01 T02490131  RH  048%=      5-min Rain = 0
KPD2 241456Z 20002KT 25/13 A2981 RMK A01 T02500130  RH  047%=      5-min Rain = 0
KPD2 241457Z 21003KT 25/13 A2981 RMK A01 T02490131  RH  048%=      5-min Rain = 0
KPD2 241458Z 27005G10KT 25/13 A2981 RMK A01 T02500132  RH  048%=      5-min Rain = 0
KPD2 241459Z 29004KT 25/13 A2981 RMK A01 T02520131  RH  047%=      5-min Rain = 0
KPD2 241500Z 26005KT 25/13 A2981 RMK A01 T02530133  RH  047%=      5-min Rain = 0
KPD2 241501Z 19006G12KT 25/13 A2981 RMK A01 T02540133  RH  047%=      5-min Rain = 0
KPD2 241502Z 19004KT 26/13 A2981 RMK A01 T02550132  RH  046%=      5-min Rain = 0
KPD2 241503Z 10003KT 26/13 A2981 RMK A01 T02550131  RH  046%=      5-min Rain = 0
KPD2 241504Z 17004KT 26/13 A2981 RMK A01 T02560133  RH  047%=      5-min Rain = 0
KPD2 241505Z 17009G15KT 26/13 A2981 RMK A01 T02570133  RH  046%=      5-min Rain = 0
KPD2 241506Z 18010KT 26/13 A2981 RMK A01 T02570133  RH  046%=      5-min Rain = 0
KPD2 241507Z 17012KT 26/13 A2981 RMK A01 T02570132  RH  046%=      5-min Rain = 0
KPD2 241508Z 16007KT 26/13 A2981 RMK A01 T02560132  RH  046%=      5-min Rain = 0
KPD2 241509Z 17008KT 26/13 A2981 RMK A01 T02550133  RH  047%=      5-min Rain = 0
KPD2 241510Z 18008KT 26/13 A2981 RMK A01 T02570134  RH  046%=      5-min Rain = 0
KPD2 241511Z 16006KT 26/13 A2981 RMK A01 T02590134  RH  046%=      5-min Rain = 0
KPD2 241512Z 31008KT 26/14 A2981 RMK A01 T02610135  RH  046%=      5-min Rain = 0
KPD2 241513Z 26009KT 26/13 A2981 RMK A01 T02620134  RH  045%=      5-min Rain = 0
KPD2 241514Z 29010KT 26/14 A2981 RMK A01 T02610136  RH  046%=      5-min Rain = 0
KPD2 241515Z 24006KT 26/14 A2982 RMK A01 T02630135  RH  045%=      5-min Rain = 0
KPD2 241516Z 25005G10KT 26/14 A2982 RMK A01 T02640135  RH  045%=      5-min Rain = 0
KPD2 241517Z 26007KT 26/13 A2982 RMK A01 T02640134  RH  045%=      5-min Rain = 0
KPD2 241518Z 24005KT 26/13 A2981 RMK A01 T02640134  RH  045%=      5-min Rain = 0
KPD2 241519Z 25004KT 26/13 A2981 RMK A01 T02640134  RH  045%=      5-min Rain = 0
KPD2 241520Z 27008KT 27/14 A2981 RMK A01 T02650138  RH  045%=      5-min Rain = 0
KPD2 241521Z 25007KT 27/14 A2981 RMK A01 T02670136  RH  044%=      5-min Rain = 0
KPD2 241522Z 21006KT 27/14 A2982 RMK A01 T02670135  RH  044%=      5-min Rain = 0
KPD2 241523Z 21005KT 27/13 A2981 RMK A01 T02650134  RH  044%=      5-min Rain = 0
KPD2 241524Z 25003KT 26/14 A2981 RMK A01 T02640136  RH  045%=      5-min Rain = 0
KPD2 241525Z 24005KT 27/14 A2981 RMK A01 T02660136  RH  045%=      5-min Rain = 0
KPD2 241526Z 25007KT 27/14 A2981 RMK A01 T02680136  RH  044%=      5-min Rain = 0
KPD2 241527Z 25007KT 27/14 A2981 RMK A01 T02700136  RH  044%=      5-min Rain = 0
KPD2 241528Z 20003KT 27/14 A2981 RMK A01 T02700135  RH  043%=      5-min Rain = 0
KPD2 241529Z 23003KT 27/14 A2981 RMK A01 T02710136  RH  043%=      5-min Rain = 0
KPD2 241530Z 25010G15KT 27/14 A2981 RMK A01 T02720135  RH  043%=      5-min Rain = 0
KPD2 241531Z 25005G11KT 27/13 A2981 RMK A01 T02700133  RH  043%=      5-min Rain = 0
KPD2 241532Z 21006KT 27/13 A2981 RMK A01 T02670134  RH  044%=      5-min Rain = 0
KPD2 241533Z 26007G15KT 27/14 A2981 RMK A01 T02660135  RH  044%=      5-min Rain = 0
KPD2 241534Z 23007KT 27/14 A2981 RMK A01 T02660135  RH  044%=      5-min Rain = 0
KPD2 241535Z 17007KT 27/13 A2981 RMK A01 T02670134  RH  044%=      5-min Rain = 0
KPD2 241536Z 23003KT 27/13 A2981 RMK A01 T02670134  RH  044%=      5-min Rain = 0
KPD2 241537Z 24006G16KT 27/14 A2981 RMK A01 T02670136  RH  044%=      5-min Rain = 0
KPD2 241538Z 25006G11KT 27/14 A2981 RMK A01 T02680135  RH  044%=      5-min Rain = 0
KPD2 241539Z 26005KT 27/14 A2981 RMK A01 T02690135  RH  044%=      5-min Rain = 0
KPD2 241540Z 27004KT 27/14 A2981 RMK A01 T02710137  RH  044%=      5-min Rain = 0
KPD2 241541Z 23008G13KT 27/14 A2981 RMK A01 T02730135  RH  043%=      5-min Rain = 0
KPD2 241542Z 23006KT 27/13 A2981 RMK A01 T02720134  RH  042%=      5-min Rain = 0
KPD2 241543Z 23010G18KT 27/14 A2981 RMK A01 T02690135  RH  043%=      5-min Rain = 0
KPD2 241544Z 24009G14KT 27/14 A2981 RMK A01 T02700135  RH  043%=      5-min Rain = 0
KPD2 241545Z 18008G13KT 27/13 A2981 RMK A01 T02690132  RH  043%=      5-min Rain = 0
KPD2 241546Z 22006G12KT 27/13 A2981 RMK A01 T02690133  RH  043%=      5-min Rain = 0
KPD2 241547Z 25011KT 27/13 A2981 RMK A01 T02700134  RH  043%=      5-min Rain = 0
KPD2 241548Z 28008G14KT 27/13 A2981 RMK A01 T02690134  RH  043%=      5-min Rain = 0
KPD2 241549Z 27007G14KT 27/13 A2981 RMK A01 T02690134  RH  043%=      5-min Rain = 0
KPD2 241550Z 25009KT 27/13 A2981 RMK A01 T02690134  RH  044%=      5-min Rain = 0
KPD2 241551Z 23007KT 27/13 A2981 RMK A01 T02710133  RH  043%=      5-min Rain = 0
KPD2 241552Z 28007KT 27/13 A2981 RMK A01 T02720134  RH  043%=      5-min Rain = 0
KPD2 241553Z 27008KT 27/13 A2981 RMK A01 T02730132  RH  042%=      5-min Rain = 0
KPD2 241554Z 27004KT 27/13 A2981 RMK A01 T02730131  RH  041%=      5-min Rain = 0
KPD2 241555Z 22007KT 27/13 A2981 RMK A01 T02730133  RH  042%=      5-min Rain = 0
KPD2 241556Z 22004KT 27/13 A2981 RMK A01 T02740132  RH  041%=      5-min Rain = 0
KPD2 241557Z 23006KT 28/13 A2981 RMK A01 T02750133  RH  042%=      5-min Rain = 0
KPD2 241558Z 24008G13KT 28/13 A2981 RMK A01 T02750134  RH  042%=      5-min Rain = 0
KPD2 241559Z 22008G13KT 28/13 A2981 RMK A01 T02770134  RH  042%=      5-min Rain = 0
KPD2 241600Z 25005G10KT 28/13 A2981 RMK A01 T02770134  RH  041%=      5-min Rain = 0
KPD2 241601Z 20003KT 28/14 A2981 RMK A01 T02780136  RH  042%=      5-min Rain = 0
KPD2 241602Z 22001KT 28/14 A2981 RMK A01 T02800137  RH  041%=      5-min Rain = 0
KPD2 241603Z 26004G9KT 28/14 A2981 RMK A01 T02810136  RH  041%=      5-min Rain = 0
KPD2 241604Z 26005KT 28/14 A298 RMK A01 T02810136  RH  041%=      5-min Rain = 0
KPD2 241605Z 25009G14KT 28/14 A2981 RMK A01 T02810136  RH  041%=      5-min Rain = 0
KPD2 241606Z 26008KT 28/13 A298 RMK A01 T02800133  RH  040%=      5-min Rain = 0
KPD2 241607Z 27009KT 28/13 A298 RMK A01 T02790133  RH  041%=      5-min Rain = 0
KPD2 241608Z 25008G13KT 28/14 A298 RMK A01 T02790135  RH  041%=      5-min Rain = 0
KPD2 241609Z 21005G10KT 28/13 A298 RMK A01 T02790133  RH  041%=      5-min Rain = 0
KPD2 241610Z 23002KT 28/13 A298 RMK A01 T02800132  RH  040%=      5-min Rain = 0
KPD2 241611Z 21006KT 28/13 A298 RMK A01 T02810131  RH  040%=      5-min Rain = 0
KPD2 241612Z 28002KT 28/13 A298 RMK A01 T02800133  RH  040%=      5-min Rain = 0
KPD2 241613Z 22004KT 28/13 A298 RMK A01 T02810134  RH  040%=      5-min Rain = 0
KPD2 241614Z 29005KT 28/13 A298 RMK A01 T02820131  RH  039%=      5-min Rain = 0
KPD2 241615Z 24007KT 28/13 A2981 RMK A01 T02820131  RH  040%=      5-min Rain = 0
KPD2 241616Z 22004KT 28/13 A2981 RMK A01 T02820134  RH  040%=      5-min Rain = 0
KPD2 241617Z 25006G12KT 28/13 A2981 RMK A01 T02830134  RH  040%=      5-min Rain = 0
KPD2 241618Z 23007KT 28/13 A2981 RMK A01 T02830132  RH  039%=      5-min Rain = 0
KPD2 241619Z 24006KT 28/13 A2981 RMK A01 T02820130  RH  039%=      5-min Rain = 0
KPD2 241620Z 27004KT 28/13 A298 RMK A01 T02820126  RH  038%=      5-min Rain = 0
KPD2 241621Z 28005KT 28/13 A298 RMK A01 T02810129  RH  039%=      5-min Rain = 0
KPD2 241622Z 26007G13KT 28/13 A2981 RMK A01 T02820128  RH  038%=      5-min Rain = 0
KPD2 241623Z 24009KT 28/13 A2981 RMK A01 T02830129  RH  039%=      5-min Rain = 0
KPD2 241624Z 24003KT 28/13 A2981 RMK A01 T02830130  RH  039%=      5-min Rain = 0
KPD2 241625Z 24005G10KT 28/13 A2981 RMK A01 T02830130  RH  039%=      5-min Rain = 0
KPD2 241626Z 24007KT 28/13 A2981 RMK A01 T02840129  RH  038%=      5-min Rain = 0
KPD2 241627Z 22007KT 29/13 A2981 RMK A01 T02860128  RH  038%=      5-min Rain = 0
KPD2 241628Z 22005KT 29/13 A2981 RMK A01 T02870128  RH  038%=      5-min Rain = 0
KPD2 241629Z 22004KT 29/13 A2981 RMK A01 T02860128  RH  038%=      5-min Rain = 0
KPD2 241630Z 20003KT 29/13 A2981 RMK A01 T02860127  RH  037%=      5-min Rain = 0
KPD2 241631Z 19005KT 28/13 A2981 RMK A01 T02840129  RH  038%=      5-min Rain = 0
KPD2 241632Z 21007KT 28/13 A2981 RMK A01 T02840130  RH  039%=      5-min Rain = 0
KPD2 241633Z 17007KT 29/13 A298 RMK A01 T02860128  RH  038%=      5-min Rain = 0
KPD2 241634Z 19008G13KT 29/13 A298 RMK A01 T02860129  RH  038%=      5-min Rain = 0
KPD2 241635Z 21005KT 29/13 A2981 RMK A01 T02860130  RH  038%=      5-min Rain = 0
KPD2 241636Z 21009KT 29/13 A2981 RMK A01 T02870130  RH  038%=      5-min Rain = 0
KPD2 241637Z 19005G10KT 29/13 A2981 RMK A01 T02880128  RH  037%=      5-min Rain = 0
KPD2 241638Z 19008KT 29/13 A2981 RMK A01 T02880127  RH  037%=      5-min Rain = 0
KPD2 241639Z 18007KT 29/13 A2981 RMK A01 T02880127  RH  037%=      5-min Rain = 0
KPD2 241640Z 18007KT 29/13 A2981 RMK A01 T02870129  RH  038%=      5-min Rain = 0
KPD2 241641Z 19007KT 29/13 A298 RMK A01 T02870129  RH  038%=      5-min Rain = 0
KPD2 241642Z 20006KT 29/13 A298 RMK A01 T02870131  RH  038%=      5-min Rain = 0
KPD2 241643Z 19005KT 29/13 A298 RMK A01 T02890130  RH  038%=      5-min Rain = 0
KPD2 241644Z 28003KT 29/13 A298 RMK A01 T02900130  RH  037%=      5-min Rain = 0
KPD2 241645Z 20003KT 29/13 A298 RMK A01 T02910129  RH  037%=      5-min Rain = 0
KPD2 241646Z 15002KT 29/13 A298 RMK A01 T02910127  RH  036%=      5-min Rain = 0
KPD2 241647Z 18005KT 29/13 A298 RMK A01 T02920128  RH  036%=      5-min Rain = 0
KPD2 241648Z 16005KT 29/13 A298 RMK A01 T02910127  RH  036%=      5-min Rain = 0
KPD2 241649Z 26004KT 29/13 A298 RMK A01 T02910130  RH  037%=      5-min Rain = 0
KPD2 241650Z 31003KT 29/12 A298 RMK A01 T02920118  RH  034%=      5-min Rain = 0
KPD2 241651Z 27007KT 29/11 A298 RMK A01 T02930114  RH  033%=      5-min Rain = 0
KPD2 241652Z 27007KT 29/12 A298 RMK A01 T02940115  RH  033%=      5-min Rain = 0
KPD2 241653Z 29004KT 29/11 A298 RMK A01 T02940114  RH  033%=      5-min Rain = 0
KPD2 241654Z 29005G11KT 29/12 A298 RMK A01 T02940115  RH  033%=      5-min Rain = 0
KPD2 241655Z 29008KT 30/11 A298 RMK A01 T02950110  RH  032%=      5-min Rain = 0
KPD2 241656Z 28005KT 30/11 A298 RMK A01 T02970112  RH  032%=      5-min Rain = 0
KPD2 241657Z 26003G8KT 30/12 A298 RMK A01 T03010115  RH  032%=      5-min Rain = 0
KPD2 241658Z 28007KT 30/11 A298 RMK A01 T03030114  RH  031%=      5-min Rain = 0
KPD2 241659Z 25006KT 30/12 A2981 RMK A01 T03020117  RH  032%=      5-min Rain = 0
KPD2 241700Z 23006KT 30/12 A2981 RMK A01 T03020115  RH  032%=      5-min Rain = 0
KPD2 241701Z 20005KT 30/11 A2981 RMK A01 T03010114  RH  031%=      5-min Rain = 0
KPD2 241702Z 19006KT 30/11 A298 RMK A01 T02980109  RH  031%=      5-min Rain = 0
KPD2 241703Z 18002KT 30/11 A298 RMK A01 T02950108  RH  031%=      5-min Rain = 0
KPD2 241704Z 15001KT 29/11 A298 RMK A01 T02940109  RH  032%=      5-min Rain = 0
KPD2 241705Z 19004KT 30/11 A298 RMK A01 T02950111  RH  032%=      5-min Rain = 0
KPD2 241706Z 21004KT 30/11 A298 RMK A01 T02960113  RH  032%=      5-min Rain = 0
KPD2 241707Z 22004KT 30/12 A298 RMK A01 T02980115  RH  032%=      5-min Rain = 0
KPD2 241708Z 22003KT 30/12 A298 RMK A01 T02990115  RH  032%=      5-min Rain = 0
KPD2 241709Z 31002KT 30/12 A298 RMK A01 T02980115  RH  032%=      5-min Rain = 0
KPD2 241710Z 31004KT 30/12 A298 RMK A01 T02980118  RH  033%=      5-min Rain = 0
KPD2 241711Z 28006KT 30/12 A298 RMK A01 T02990116  RH  032%=      5-min Rain = 0
KPD2 241712Z 30006KT 30/11 A298 RMK A01 T02990113  RH  032%=      5-min Rain = 0
KPD2 241713Z 32003KT 30/11 A298 RMK A01 T03020111  RH  031%=      5-min Rain = 0
KPD2 241714Z 30003KT 30/11 A2979 RMK A01 T03020105  RH  029%=      5-min Rain = 0
KPD2 241715Z 33005KT 30/11 A2979 RMK A01 T03010111  RH  031%=      5-min Rain = 0
KPD2 241716Z 27004KT 30/11 A2979 RMK A01 T03040114  RH  031%=      5-min Rain = 0
KPD2 241717Z 29004KT 31/11 A298 RMK A01 T03060114  RH  031%=      5-min Rain = 0
KPD2 241718Z 25005KT 31/12 A298 RMK A01 T03070116  RH  031%=      5-min Rain = 0
KPD2 241719Z 23004KT 31/12 A298 RMK A01 T03070118  RH  031%=      5-min Rain = 0
KPD2 241720Z 27005KT 31/12 A298 RMK A01 T03080117  RH  031%=      5-min Rain = 0
KPD2 241721Z 22004KT 31/11 A298 RMK A01 T03090107  RH  029%=      5-min Rain = 0
KPD2 241722Z 24003KT 31/11 A298 RMK A01 T03070109  RH  029%=      5-min Rain = 0
KPD2 241723Z 28004KT 31/11 A2979 RMK A01 T03080106  RH  029%=      5-min Rain = 0
KPD2 241724Z 33003KT 31/11 A2979 RMK A01 T03070105  RH  029%=      5-min Rain = 0
KPD2 241725Z 31005KT 31/11 A2979 RMK A01 T03070108  RH  029%=      5-min Rain = 0
KPD2 241726Z 30005KT 31/11 A2979 RMK A01 T03080111  RH  030%=      5-min Rain = 0
KPD2 241727Z 34002KT 31/11 A2979 RMK A01 T03080111  RH  030%=      5-min Rain = 0
KPD2 241728Z 23002KT 31/11 A2979 RMK A01 T03080112  RH  030%=      5-min Rain = 0
KPD2 241729Z 24005KT 31/12 A2979 RMK A01 T03100116  RH  030%=      5-min Rain = 0
KPD2 241730Z 22003KT 31/11 A2979 RMK A01 T03140112  RH  029%=      5-min Rain = 0
KPD2 241731Z 24006KT 32/11 A2979 RMK A01 T03150109  RH  028%=      5-min Rain = 0
KPD2 241732Z 19003G8KT 31/10 A2979 RMK A01 T03120103  RH  028%=      5-min Rain = 0
KPD2 241733Z 30002KT 31/11 A2979 RMK A01 T03070105  RH  029%=      5-min Rain = 0
KPD2 241734Z 25003KT 31/11 A2979 RMK A01 T03070109  RH  030%=      5-min Rain = 0
KPD2 241735Z 31005KT 31/11 A2979 RMK A01 T03090111  RH  030%=      5-min Rain = 0
KPD2 241736Z 28006KT 31/11 A2979 RMK A01 T03120111  RH  029%=      5-min Rain = 0
KPD2 241737Z 25003KT 31/11 A2979 RMK A01 T03120112  RH  029%=      5-min Rain = 0
KPD2 241738Z 25003KT 31/11 A2979 RMK A01 T03120111  RH  029%=      5-min Rain = 0
KPD2 241739Z 19006G11KT 31/11 A2979 RMK A01 T03130112  RH  029%=      5-min Rain = 0
KPD2 241740Z 20008KT 31/11 A2979 RMK A01 T03120109  RH  029%=      5-min Rain = 0
KPD2 241741Z 19004KT 31/11 A2979 RMK A01 T03100109  RH  029%=      5-min Rain = 0
KPD2 241742Z 16007KT 31/11 A2979 RMK A01 T03100109  RH  029%=      5-min Rain = 0
KPD2 241743Z 17007KT 31/11 A2979 RMK A01 T03110106  RH  028%=      5-min Rain = 0
KPD2 241744Z 21008KT 31/11 A2979 RMK A01 T03110108  RH  029%=      5-min Rain = 0
KPD2 241745Z 22007KT 31/11 A2979 RMK A01 T03100109  RH  029%=      5-min Rain = 0
KPD2 241746Z 19005KT 31/11 A2979 RMK A01 T03110110  RH  029%=      5-min Rain = 0
KPD2 241747Z 23004KT 31/11 A2979 RMK A01 T03130110  RH  029%=      5-min Rain = 0
KPD2 241748Z 21005KT 32/11 A2979 RMK A01 T03150110  RH  028%=      5-min Rain = 0
KPD2 241749Z 17006KT 32/11 A2979 RMK A01 T03150109  RH  028%=      5-min Rain = 0
KPD2 241750Z 17007KT 31/11 A2979 RMK A01 T03140109  RH  028%=      5-min Rain = 0
KPD2 241751Z 18008KT 31/11 A2979 RMK A01 T03130108  RH  028%=      5-min Rain = 0
KPD2 241752Z 22007KT 31/11 A2979 RMK A01 T03130110  RH  029%=      5-min Rain = 0
KPD2 241753Z 26004KT 31/11 A2979 RMK A01 T03140107  RH  028%=      5-min Rain = 0
KPD2 241754Z 25004KT 31/11 A2979 RMK A01 T03140107  RH  028%=      5-min Rain = 0
KPD2 241755Z 28005G10KT 31/11 A2979 RMK A01 T03140106  RH  028%=      5-min Rain = 0
KPD2 241756Z 28007KT 32/10 A2979 RMK A01 T03160104  RH  027%=      5-min Rain = 0
KPD2 241757Z 29008KT 32/10 A2979 RMK A01 T03170100  RH  026%=      5-min Rain = 0
KPD2 241758Z 29008KT 32/10 A2979 RMK A01 T03160103  RH  027%=      5-min Rain = 0
KPD2 241759Z 28009KT 32/10 A2979 RMK A01 T03180103  RH  027%=      5-min Rain = 0
KPD2 241800Z 27006KT 32/10 A2979 RMK A01 T03170102  RH  027%=      5-min Rain = 0
KPD2 241801Z 29005KT 32/11 A2978 RMK A01 T03160105  RH  027%=      5-min Rain = 0
KPD2 241802Z 31004KT 32/11 A2978 RMK A01 T03190107  RH  027%=      5-min Rain = 0
KPD2 241803Z 32004KT 32/11 A2978 RMK A01 T03220107  RH  027%=      5-min Rain = 0
KPD2 241804Z 24004KT 32/11 A2978 RMK A01 T03230106  RH  026%=      5-min Rain = 0
KPD2 241805Z 22007KT 32/11 A2978 RMK A01 T03240108  RH  027%=      5-min Rain = 0
KPD2 241806Z 25006KT 33/11 A2979 RMK A01 T03260108  RH  026%=      5-min Rain = 0
KPD2 241807Z 26005KT 33/10 A2978 RMK A01 T03270103  RH  025%=      5-min Rain = 0
KPD2 241808Z 28007KT 32/10 A2978 RMK A01 T03240101  RH  025%=      5-min Rain = 0
KPD2 241809Z 29004KT 32/10 A2978 RMK A01 T03220103  RH  026%=      5-min Rain = 0
KPD2 241810Z 27003KT 32/10 A2978 RMK A01 T03220103  RH  026%=      5-min Rain = 0
KPD2 241811Z 25005KT 32/10 A2978 RMK A01 T03220103  RH  026%=      5-min Rain = 0
KPD2 241812Z 25004KT 32/10 A2978 RMK A01 T03210104  RH  026%=      5-min Rain = 0
KPD2 241813Z 26004KT 32/11 A2978 RMK A01 T03220106  RH  027%=      5-min Rain = 0
KPD2 241814Z 22003KT 32/11 A2978 RMK A01 T03230105  RH  026%=      5-min Rain = 0
KPD2 241815Z 19005KT 32/11 A2978 RMK A01 T03230106  RH  026%=      5-min Rain = 0
KPD2 241816Z 22004KT 32/10 A2978 RMK A01 T03230103  RH  026%=      5-min Rain = 0
KPD2 241817Z 20006G11KT 32/10 A2978 RMK A01 T03210101  RH  026%=      5-min Rain = 0
KPD2 241818Z 18005KT 32/10 A2978 RMK A01 T03210098  RH  025%=      5-min Rain = 0
KPD2 241819Z 21005KT 32/10 A2978 RMK A01 T03210097  RH  025%=      5-min Rain = 0
KPD2 241820Z 19006G11KT 32/10 A2978 RMK A01 T03220099  RH  025%=      5-min Rain = 0
KPD2 241821Z 19008KT 32/10 A2978 RMK A01 T03220098  RH  025%=      5-min Rain = 0
KPD2 241822Z 20009KT 32/10 A2978 RMK A01 T03220097  RH  025%=      5-min Rain = 0
KPD2 241823Z 17006KT 32/10 A2978 RMK A01 T03200098  RH  025%=      5-min Rain = 0
KPD2 241824Z 21004KT 32/10 A2978 RMK A01 T03190098  RH  026%=      5-min Rain = 0
KPD2 241825Z 17004KT 32/10 A2977 RMK A01 T03210100  RH  026%=      5-min Rain = 0
KPD2 241826Z 15004KT 32/10 A2977 RMK A01 T03230101  RH  026%=      5-min Rain = 0
KPD2 241827Z 18008KT 33/10 A2977 RMK A01 T03250101  RH  025%=      5-min Rain = 0
KPD2 241828Z 19007KT 33/10 A2977 RMK A01 T03260099  RH  025%=      5-min Rain = 0
KPD2 241829Z 16006KT 33/10 A2977 RMK A01 T03250098  RH  025%=      5-min Rain = 0
KPD2 241830Z 14005KT 32/10 A2977 RMK A01 T03230100  RH  025%=      5-min Rain = 0
KPD2 241831Z 13002KT 32/10 A2977 RMK A01 T03230098  RH  025%=      5-min Rain = 0
KPD2 241832Z 25002KT 32/10 A2977 RMK A01 T03230100  RH  025%=      5-min Rain = 0
KPD2 241833Z 21002KT 32/10 A2977 RMK A01 T03220099  RH  025%=      5-min Rain = 0
KPD2 241834Z 25007KT 32/10 A2977 RMK A01 T03210097  RH  025%=      5-min Rain = 0
KPD2 241835Z 22004G9KT 32/10 A2977 RMK A01 T03240098  RH  025%=      5-min Rain = 0
KPD2 241836Z 20006KT 33/10 A2977 RMK A01 T03270099  RH  025%=      5-min Rain = 0
KPD2 241837Z 20011KT 33/09 A2977 RMK A01 T03290094  RH  024%=      5-min Rain = 0
KPD2 241838Z 19008KT 33/09 A2977 RMK A01 T03270088  RH  023%=      5-min Rain = 0
KPD2 241839Z 21005KT 33/09 A2977 RMK A01 T03250090  RH  023%=      5-min Rain = 0
KPD2 241840Z 20005KT 33/09 A2977 RMK A01 T03250091  RH  023%=      5-min Rain = 0
KPD2 241841Z 21005KT 33/09 A2977 RMK A01 T03260091  RH  023%=      5-min Rain = 0
KPD2 241842Z 18006KT 33/09 A2977 RMK A01 T03260090  RH  023%=      5-min Rain = 0
KPD2 241843Z 17006KT 33/09 A2977 RMK A01 T03260090  RH  023%=      5-min Rain = 0
KPD2 241844Z 16006KT 33/09 A2977 RMK A01 T03270091  RH  023%=      5-min Rain = 0
KPD2 241845Z 17007KT 33/09 A2976 RMK A01 T03290089  RH  023%=      5-min Rain = 0
KPD2 241846Z 14005KT 33/09 A2976 RMK A01 T03300091  RH  023%=      5-min Rain = 0
KPD2 241847Z 19005KT 33/09 A2976 RMK A01 T03330091  RH  023%=      5-min Rain = 0
KPD2 241848Z 18008KT 33/09 A2976 RMK A01 T03330087  RH  022%=      5-min Rain = 0
KPD2 241849Z 16004KT 33/08 A2976 RMK A01 T03280083  RH  022%=      5-min Rain = 0
KPD2 241850Z 16005KT 33/09 A2976 RMK A01 T03270085  RH  022%=      5-min Rain = 0
KPD2 241851Z 20003KT 33/09 A2976 RMK A01 T03280086  RH  023%=      5-min Rain = 0
KPD2 241852Z 19005KT 33/09 A2976 RMK A01 T03320091  RH  023%=      5-min Rain = 0
KPD2 241853Z 18008G13KT 34/09 A2976 RMK A01 T03350088  RH  022%=      5-min Rain = 0
KPD2 241854Z 16011KT 33/09 A2976 RMK A01 T03340092  RH  023%=      5-min Rain = 0
KPD2 241855Z 17009KT 33/09 A2976 RMK A01 T03330094  RH  023%=      5-min Rain = 0
KPD2 241856Z 18006KT 33/09 A2976 RMK A01 T03330093  RH  023%=      5-min Rain = 0
KPD2 241857Z 16006KT 33/09 A2976 RMK A01 T03310093  RH  023%=      5-min Rain = 0
KPD2 241858Z 16004KT 33/09 A2976 RMK A01 T03290093  RH  023%=      5-min Rain = 0
KPD2 241859Z 16005KT 33/10 A2976 RMK A01 T03290096  RH  024%=      5-min Rain = 0
KPD2 241900Z 19004KT 33/10 A2976 RMK A01 T03340098  RH  024%=      5-min Rain = 0
KPD2 241901Z 26003KT 34/10 A2976 RMK A01 T03400098  RH  023%=      5-min Rain = 0
KPD2 241902Z 29004KT 34/09 A2976 RMK A01 T03420088  RH  021%=      5-min Rain = 0
KPD2 241903Z 31001KT 34/08 A2976 RMK A01 T03370084  RH  021%=      5-min Rain = 0
KPD2 241904Z 33004KT 34/09 A2976 RMK A01 T03350088  RH  022%=      5-min Rain = 0
KPD2 241905Z 28006KT 34/09 A2976 RMK A01 T03350090  RH  022%=      5-min Rain = 0
KPD2 241906Z 24004KT 34/09 A2976 RMK A01 T03380090  RH  022%=      5-min Rain = 0
KPD2 241907Z 20004KT 34/08 A2976 RMK A01 T03390079  RH  020%=      5-min Rain = 0
KPD2 241908Z 19003KT 34/07 A2976 RMK A01 T03370069  RH  019%=      5-min Rain = 0
KPD2 241909Z 21007G12KT 34/07 A2976 RMK A01 T03360071  RH  019%=      5-min Rain = 0
KPD2 241910Z 19007KT 34/06 A2976 RMK A01 T03380063  RH  018%=      5-min Rain = 0
KPD2 241911Z 17007KT 34/06 A2976 RMK A01 T03380060  RH  018%=      5-min Rain = 0
KPD2 241912Z 20005KT 34/07 A2975 RMK A01 T03350068  RH  019%=      5-min Rain = 0
KPD2 241913Z 16009KT 34/07 A2975 RMK A01 T03370067  RH  019%=      5-min Rain = 0
KPD2 241914Z 14007KT 34/07 A2975 RMK A01 T03390066  RH  018%=      5-min Rain = 0
KPD2 241915Z 13007KT 34/07 A2975 RMK A01 T03390071  RH  019%=      5-min Rain = 0
KPD2 241916Z 14006KT 34/07 A2975 RMK A01 T03420074  RH  019%=      5-min Rain = 0
KPD2 241917Z 16003KT 34/07 A2975 RMK A01 T03430069  RH  018%=      5-min Rain = 0
KPD2 241918Z 19002KT 34/07 A2975 RMK A01 T03380070  RH  019%=      5-min Rain = 0
KPD2 241919Z 22003KT 34/07 A2975 RMK A01 T03370074  RH  020%=      5-min Rain = 0
KPD2 241920Z 19005KT 34/07 A2975 RMK A01 T03390069  RH  019%=      5-min Rain = 0
KPD2 241921Z 16003KT 34/06 A2975 RMK A01 T03370062  RH  018%=      5-min Rain = 0
KPD2 241922Z 17006KT 34/07 A2975 RMK A01 T03380065  RH  018%=      5-min Rain = 0
KPD2 241923Z 16010KT 34/06 A2975 RMK A01 T03380064  RH  018%=      5-min Rain = 0
KPD2 241924Z 18006G11KT 34/06 A2975 RMK A01 T03370064  RH  018%=      5-min Rain = 0
KPD2 241925Z 21005KT 34/07 A2975 RMK A01 T03360066  RH  019%=      5-min Rain = 0
KPD2 241926Z 26003KT 34/07 A2975 RMK A01 T03370071  RH  019%=      5-min Rain = 0
KPD2 241927Z 19005KT 34/07 A2975 RMK A01 T03400073  RH  019%=      5-min Rain = 0
KPD2 241928Z 17007KT 34/08 A2975 RMK A01 T03430077  RH  019%=      5-min Rain = 0
KPD2 241929Z 15004KT 35/07 A2975 RMK A01 T03450072  RH  019%=      5-min Rain = 0
KPD2 241930Z 19002KT 34/07 A2975 RMK A01 T03430072  RH  019%=      5-min Rain = 0
KPD2 241931Z 23004KT 34/08 A2975 RMK A01 T03410077  RH  020%=      5-min Rain = 0
KPD2 241932Z 27007KT 34/07 A2975 RMK A01 T03410070  RH  019%=      5-min Rain = 0
KPD2 241933Z 29007KT 34/06 A2975 RMK A01 T03390056  RH  017%=      5-min Rain = 0
KPD2 241934Z 33004KT 34/07 A2975 RMK A01 T03350067  RH  019%=      5-min Rain = 0
KPD2 241935Z 28004KT 34/07 A2975 RMK A01 T03350067  RH  019%=      5-min Rain = 0
KPD2 241936Z 31004KT 34/05 A2974 RMK A01 T03370051  RH  017%=      5-min Rain = 0
KPD2 241937Z 13004KT 34/05 A2974 RMK A01 T03400053  RH  017%=      5-min Rain = 0
KPD2 241938Z 20007G12KT 34/07 A2974 RMK A01 T03430066  RH  018%=      5-min Rain = 0
KPD2 241939Z 21007G12KT 34/07 A2974 RMK A01 T03440067  RH  018%=      5-min Rain = 0
KPD2 241940Z 27007KT 34/06 A2974 RMK A01 T03430060  RH  017%=      5-min Rain = 0
KPD2 241941Z 26008KT 35/06 A2974 RMK A01 T03460056  RH  017%=      5-min Rain = 0
KPD2 241942Z 30006KT 35/06 A2974 RMK A01 T03480056  RH  016%=      5-min Rain = 0
KPD2 241943Z 29005KT 35/05 A2974 RMK A01 T03450054  RH  016%=      5-min Rain = 0
KPD2 241944Z 28007KT 34/05 A2974 RMK A01 T03440054  RH  017%=      5-min Rain = 0
KPD2 241945Z 28006KT 34/06 A2974 RMK A01 T03440061  RH  017%=      5-min Rain = 0
KPD2 241946Z 26006KT 35/07 A2974 RMK A01 T03470065  RH  017%=      5-min Rain = 0
KPD2 241947Z 23009G14KT 35/07 A2974 RMK A01 T03490066  RH  017%=      5-min Rain = 0
KPD2 241948Z 22010G15KT 35/06 A2974 RMK A01 T03510064  RH  017%=      5-min Rain = 0
KPD2 241949Z 21008KT 35/07 A2974 RMK A01 T03480067  RH  018%=      5-min Rain = 0
KPD2 241950Z 21008KT 35/07 A2974 RMK A01 T03460067  RH  018%=      5-min Rain = 0
KPD2 241951Z 21008KT 34/07 A2974 RMK A01 T03440067  RH  018%=      5-min Rain = 0
KPD2 241952Z 20008KT 34/06 A2974 RMK A01 T03420063  RH  018%=      5-min Rain = 0
KPD2 241953Z 22001KT 34/06 A2974 RMK A01 T03390063  RH  018%=      5-min Rain = 0
KPD2 241954Z 15003KT 34/07 A2973 RMK A01 T03390066  RH  018%=      5-min Rain = 0
KPD2 241955Z 22005G10KT 34/07 A2973 RMK A01 T03440069  RH  018%=      5-min Rain = 0
KPD2 241956Z 23004KT 35/07 A2973 RMK A01 T03470066  RH  018%=      5-min Rain = 0
KPD2 241957Z 26002KT 35/07 A2973 RMK A01 T03470068  RH  018%=      5-min Rain = 0
KPD2 241958Z 18006KT 35/07 A2973 RMK A01 T03490070  RH  018%=      5-min Rain = 0
KPD2 241959Z 17003KT 35/07 A2973 RMK A01 T03530071  RH  018%=      5-min Rain = 0
KPD2 242000Z 19003G8KT 36/07 A2973 RMK A01 T03560069  RH  017%=      5-min Rain = 0
KPD2 242001Z 19007KT 36/07 A2973 RMK A01 T03570066  RH  017%=      5-min Rain = 0
KPD2 242002Z 21006KT 36/07 A2973 RMK A01 T03550067  RH  017%=      5-min Rain = 0
KPD2 242003Z 19009KT 35/07 A2973 RMK A01 T03530069  RH  017%=      5-min Rain = 0
KPD2 242004Z 19005G10KT 35/06 A2973 RMK A01 T03490064  RH  017%=      5-min Rain = 0
KPD2 242005Z 19004KT 35/07 A2973 RMK A01 T03460065  RH  018%=      5-min Rain = 0
KPD2 242006Z 18006KT 35/07 A2973 RMK A01 T03460066  RH  018%=      5-min Rain = 0
KPD2 242007Z 19008KT 35/07 A2973 RMK A01 T03470067  RH  018%=      5-min Rain = 0
KPD2 242008Z 18007KT 35/06 A2973 RMK A01 T03470063  RH  017%=      5-min Rain = 0
KPD2 242009Z 17006KT 34/06 A2973 RMK A01 T03440062  RH  017%=      5-min Rain = 0
KPD2 242010Z 17007KT 35/06 A2973 RMK A01 T03450063  RH  017%=      5-min Rain = 0
KPD2 242011Z 16008G13KT 35/06 A2973 RMK A01 T03470061  RH  017%=      5-min Rain = 0
KPD2 242012Z 20008KT 35/06 A2973 RMK A01 T03480060  RH  017%=      5-min Rain = 0
KPD2 242013Z 25007KT 35/06 A2973 RMK A01 T03480057  RH  016%=      5-min Rain = 0
KPD2 242014Z 26004KT 35/06 A2973 RMK A01 T03470056  RH  017%=      5-min Rain = 0
KPD2 242015Z 26006KT 35/06 A2973 RMK A01 T03470057  RH  017%=      5-min Rain = 0
KPD2 242016Z 24004KT 35/05 A2972 RMK A01 T03470048  RH  015%=      5-min Rain = 0
KPD2 242017Z 23006KT 35/05 A2972 RMK A01 T03460053  RH  016%=      5-min Rain = 0
KPD2 242018Z 16007KT 35/06 A2972 RMK A01 T03470058  RH  017%=      5-min Rain = 0
KPD2 242019Z 22004KT 35/06 A2972 RMK A01 T03470058  RH  017%=      5-min Rain = 0
KPD2 242020Z 18005G10KT 35/06 A2972 RMK A01 T03500060  RH  017%=      5-min Rain = 0
KPD2 242021Z 22004KT 35/06 A2973 RMK A01 T03520057  RH  016%=      5-min Rain = 0
KPD2 242022Z 25005KT 35/06 A2973 RMK A01 T03530055  RH  016%=      5-min Rain = 0
KPD2 242023Z 25006KT 35/05 A2972 RMK A01 T03540053  RH  016%=      5-min Rain = 0
KPD2 242024Z 23003KT 36/05 A2972 RMK A01 T03550054  RH  016%=      5-min Rain = 0
KPD2 242025Z 23003KT 36/06 A2972 RMK A01 T03570058  RH  016%=      5-min Rain = 0
KPD2 242026Z 26003KT 36/06 A2972 RMK A01 T03590057  RH  015%=      5-min Rain = 0
KPD2 242027Z 29001KT 36/06 A2972 RMK A01 T03590055  RH  015%=      5-min Rain = 0
KPD2 242028Z 25008G13KT 36/06 A2972 RMK A01 T03580056  RH  015%=      5-min Rain = 0
KPD2 242029Z 25007KT 35/05 A2972 RMK A01 T03510049  RH  015%=      5-min Rain = 0
KPD2 242030Z 26004KT 35/05 A2972 RMK A01 T03450051  RH  016%=      5-min Rain = 0
KPD2 242031Z 26003KT 34/05 A2972 RMK A01 T03440051  RH  016%=      5-min Rain = 0
KPD2 242032Z 30001KT 34/05 A2972 RMK A01 T03420051  RH  016%=      5-min Rain = 0
KPD2 242033Z 05003KT 34/05 A2972 RMK A01 T03420053  RH  017%=      5-min Rain = 0
KPD2 242034Z 13006KT 35/05 A2972 RMK A01 T03460054  RH  016%=      5-min Rain = 0
KPD2 242035Z 18006G14KT 35/05 A2972 RMK A01 T03490053  RH  016%=      5-min Rain = 0
KPD2 242036Z 18009KT 35/05 A2972 RMK A01 T03500052  RH  016%=      5-min Rain = 0
KPD2 242037Z 20008G13KT 35/06 A2971 RMK A01 T03490056  RH  016%=      5-min Rain = 0
KPD2 242038Z 16010KT 35/06 A2971 RMK A01 T03470055  RH  016%=      5-min Rain = 0
KPD2 242039Z 16009KT 35/05 A2972 RMK A01 T03450052  RH  016%=      5-min Rain = 0
KPD2 242040Z 17009KT 34/05 A2972 RMK A01 T03400049  RH  016%=      5-min Rain = 0
KPD2 242041Z 16006KT 34/05 A2972 RMK A01 T03360050  RH  017%=      5-min Rain = 0
KPD2 242042Z 16005KT 33/05 A2972 RMK A01 T03340050  RH  017%=      5-min Rain = 0
KPD2 242043Z 14005KT 33/05 A2972 RMK A01 T03330050  RH  017%=      5-min Rain = 0
KPD2 242044Z 21005G11KT 33/05 A2972 RMK A01 T03330054  RH  018%=      5-min Rain = 0
KPD2 242045Z 21008KT 33/05 A2972 RMK A01 T03330053  RH  017%=      5-min Rain = 0
KPD2 242046Z 20006KT 33/05 A2972 RMK A01 T03330050  RH  017%=      5-min Rain = 0
KPD2 242047Z 20008KT 33/05 A2972 RMK A01 T03320048  RH  017%=      5-min Rain = 0
KPD2 242048Z 21005KT 33/05 A2972 RMK A01 T03310048  RH  017%=      5-min Rain = 0
KPD2 242049Z 22006KT 33/05 A2972 RMK A01 T03310049  RH  017%=      5-min Rain = 0
KPD2 242050Z 22005KT 33/05 A2971 RMK A01 T03320052  RH  017%=      5-min Rain = 0
KPD2 242051Z 20007G13KT 33/05 A2971 RMK A01 T03340053  RH  017%=      5-min Rain = 0
KPD2 242052Z 21009KT 34/05 A2971 RMK A01 T03350052  RH  017%=      5-min Rain = 0
KPD2 242053Z 23003KT 34/05 A2971 RMK A01 T03360053  RH  017%=      5-min Rain = 0
KPD2 242054Z 26005G11KT 34/06 A2971 RMK A01 T03380058  RH  018%=      5-min Rain = 0
KPD2 242055Z 23005KT 34/06 A2971 RMK A01 T03410055  RH  017%=      5-min Rain = 0
KPD2 242056Z 28004G9KT 34/06 A2971 RMK A01 T03400056  RH  017%=      5-min Rain = 0
KPD2 242057Z 23008KT 34/06 A2971 RMK A01 T03390056  RH  017%=      5-min Rain = 0
KPD2 242058Z 21006KT 34/05 A2971 RMK A01 T03360050  RH  017%=      5-min Rain = 0
KPD2 242059Z 17002KT 33/05 A2971 RMK A01 T03330049  RH  017%=      5-min Rain = 0
KPD2 242100Z 29002KT 33/06 A2971 RMK A01 T03310056  RH  018%=      5-min Rain = 0
KPD2 242101Z 23004KT 33/05 A2971 RMK A01 T03310051  RH  017%=      5-min Rain = 0
KPD2 242102Z 22003KT 33/05 A2971 RMK A01 T03310054  RH  018%=      5-min Rain = 0
KPD2 242103Z 24004KT 33/05 A2971 RMK A01 T03300054  RH  018%=      5-min Rain = 0
KPD2 242104Z 23004KT 33/06 A2971 RMK A01 T03290055  RH  018%=      5-min Rain = 0
KPD2 242105Z 25004KT 33/06 A2971 RMK A01 T03300055  RH  018%=      5-min Rain = 0
KPD2 242106Z 26006KT 33/05 A2971 RMK A01 T03300054  RH  018%=      5-min Rain = 0
KPD2 242107Z 26007KT 33/05 A2971 RMK A01 T03290052  RH  018%=      5-min Rain = 0
KPD2 242108Z 26006KT 33/05 A2971 RMK A01 T03280051  RH  018%=      5-min Rain = 0
KPD2 242109Z 25005KT 33/05 A2971 RMK A01 T03270053  RH  018%=      5-min Rain = 0
KPD2 242110Z 24005KT 33/05 A2971 RMK A01 T03270053  RH  018%=      5-min Rain = 0
KPD2 242111Z 22005KT 33/05 A2971 RMK A01 T03270053  RH  018%=      5-min Rain = 0
KPD2 242112Z 23004KT 33/05 A2971 RMK A01 T03260052  RH  018%=      5-min Rain = 0
KPD2 242113Z 25005KT 33/05 A2971 RMK A01 T03260054  RH  018%=      5-min Rain = 0
KPD2 242114Z 25005KT 33/06 A2971 RMK A01 T03250055  RH  018%=      5-min Rain = 0
KPD2 242115Z 26003KT 32/05 A2971 RMK A01 T03240053  RH  018%=      5-min Rain = 0
KPD2 242116Z 25003KT 32/05 A297 RMK A01 T03240054  RH  018%=      5-min Rain = 0
KPD2 242117Z 25003KT 32/05 A297 RMK A01 T03240052  RH  018%=      5-min Rain = 0
KPD2 242118Z 25002KT 32/05 A297 RMK A01 T03230052  RH  018%=      5-min Rain = 0
KPD2 242119Z 24003KT 32/05 A297 RMK A01 T03220051  RH  018%=      5-min Rain = 0
KPD2 242120Z 23005KT 32/05 A297 RMK A01 T03220051  RH  018%=      5-min Rain = 0
KPD2 242121Z 25004KT 32/05 A297 RMK A01 T03210051  RH  018%=      5-min Rain = 0
KPD2 242122Z 27003KT 32/05 A297 RMK A01 T03200049  RH  018%=      5-min Rain = 0
KPD2 242123Z 30005KT 32/05 A297 RMK A01 T03200052  RH  019%=      5-min Rain = 0
KPD2 242124Z 30006KT 32/05 A297 RMK A01 T03190050  RH  018%=      5-min Rain = 0
KPD2 242125Z 32006KT 32/05 A297 RMK A01 T03190050  RH  018%=      5-min Rain = 0
KPD2 242126Z 28007KT 32/05 A297 RMK A01 T03180046  RH  018%=      5-min Rain = 0
KPD2 242127Z 30008KT 32/03 A2969 RMK A01 T03170033  RH  017%=      5-min Rain = 0
KPD2 242128Z 32008KT 32/03 A2969 RMK A01 T03150029  RH  016%=      5-min Rain = 0
KPD2 242129Z 31006KT 32/02 A2969 RMK A01 T03150024  RH  016%=      5-min Rain = 0
KPD2 242130Z 34006KT 31/02 A2969 RMK A01 T03140023  RH  016%=      5-min Rain = 0
KPD2 242131Z 33008KT 31/03 A2969 RMK A01 T03140025  RH  016%=      5-min Rain = 0
KPD2 242132Z 31005KT 31/03 A2969 RMK A01 T03140025  RH  016%=      5-min Rain = 0
KPD2 242133Z 31007KT 31/03 A2969 RMK A01 T03130027  RH  016%=      5-min Rain = 0
KPD2 242134Z 32006KT 31/03 A2969 RMK A01 T03130026  RH  016%=      5-min Rain = 0
KPD2 242135Z 30008KT 31/02 A2969 RMK A01 T03120024  RH  016%=      5-min Rain = 0
KPD2 242136Z 31008KT 31/03 A2969 RMK A01 T03120026  RH  016%=      5-min Rain = 0
KPD2 242137Z 29007KT 31/03 A297 RMK A01 T03100028  RH  017%=      5-min Rain = 0
KPD2 242138Z 30006KT 31/03 A297 RMK A01 T03090031  RH  017%=      5-min Rain = 0
KPD2 242139Z 32006KT 31/04 A297 RMK A01 T03080036  RH  018%=      5-min Rain = 0
KPD2 242140Z 32005KT 31/04 A297 RMK A01 T03060039  RH  018%=      5-min Rain = 0
KPD2 242141Z 30007KT 31/04 A2969 RMK A01 T03050040  RH  019%=      5-min Rain = 0
KPD2 242142Z 29007KT 30/04 A2969 RMK A01 T03040043  RH  019%=      5-min Rain = 0
KPD2 242143Z 29004KT 30/05 A2969 RMK A01 T03030047  RH  020%=      5-min Rain = 0
KPD2 242144Z 27006G12KT 30/05 A2969 RMK A01 T03030052  RH  021%=      5-min Rain = 0
KPD2 242145Z 11015KT 30/04 A297 RMK A01 T03030042  RH  019%=      5-min Rain = 0
KPD2 242146Z 13011G16KT 30/05 A297 RMK A01 T03040046  RH  020%=      5-min Rain = 0
KPD2 242147Z 16012G21KT 31/08 A297 RMK A01 T03060081  RH  025%=      5-min Rain = 0
KPD2 242148Z 14010KT 30/12 A297 RMK A01 T03040119  RH  032%=      5-min Rain = 0
KPD2 242149Z 14010G15KT 30/13 A297 RMK A01 T02960127  RH  035%=      5-min Rain = 0
KPD2 242150Z 12009KT 29/14 A297 RMK A01 T02860143  RH  042%=      5-min Rain = 0
KPD2 242151Z 12010KT 28/15 A2971 RMK A01 T02750151  RH  047%=      5-min Rain = 0
KPD2 242152Z 15007KT 27/14 A2971 RMK A01 T02650139  RH  046%=      5-min Rain = 0.01
KPD2 242153Z 15007KT 26/14 A2971 RMK A01 T02580135  RH  047%=      5-min Rain = 0
KPD2 242154Z 14013G18KT 25/14 A2972 RMK A01 T02510136  RH  049%=      5-min Rain = 0.01
KPD2 242155Z 14010KT 24/15 A2972 RMK A01 T02420146  RH  055%=      5-min Rain = 0.01
KPD2 242156Z 14013KT 23/14 A2972 RMK A01 T02330139  RH  055%=      5-min Rain = 0.01
KPD2 242157Z 12012KT 23/14 A2972 RMK A01 T02300137  RH  056%=      5-min Rain = 0.01
KPD2 242158Z 11005KT 23/13 A2972 RMK A01 T02250130  RH  055%=      5-min Rain = 0.01
KPD2 242159Z 09005KT 22/14 A2972 RMK A01 T02220143  RH  061%=      5-min Rain = 0
KPD2 242200Z 07006KT 22/14 A2971 RMK A01 T02160137  RH  061%=      5-min Rain = 0
KPD2 242201Z 04007KT 22/13 A2971 RMK A01 T02150128  RH  058%=      5-min Rain = 0.01
KPD2 242202Z 05008KT 21/13 A2971 RMK A01 T02140128  RH  058%=      5-min Rain = 0
KPD2 242203Z 05007KT 22/13 A297 RMK A01 T02170132  RH  059%=      5-min Rain = 0
KPD2 242204Z 08004KT 22/13 A297 RMK A01 T02180126  RH  056%=      5-min Rain = 0
KPD2 242205Z 09002KT 22/11 A297 RMK A01 T02200111  RH  050%=      5-min Rain = 0
KPD2 242206Z 11004KT 22/13 A297 RMK A01 T02230129  RH  055%=      5-min Rain = 0
KPD2 242207Z 10004KT 23/15 A297 RMK A01 T02250153  RH  064%=      5-min Rain = 0
KPD2 242208Z 08004KT 23/13 A297 RMK A01 T02250131  RH  055%=      5-min Rain = 0
KPD2 242209Z 07005KT 23/13 A297 RMK A01 T02250126  RH  054%=      5-min Rain = 0
KPD2 242210Z 05004KT 23/11 A297 RMK A01 T02270110  RH  047%=      5-min Rain = 0
KPD2 242211Z 05004KT 23/11 A297 RMK A01 T02330111  RH  046%=      5-min Rain = 0
KPD2 242212Z 06005KT 23/12 A297 RMK A01 T02340123  RH  050%=      5-min Rain = 0
KPD2 242213Z 10003KT 23/11 A2969 RMK A01 T02340108  RH  045%=      5-min Rain = 0
KPD2 242214Z 18003KT 24/14 A297 RMK A01 T02360138  RH  054%=      5-min Rain = 0
KPD2 242215Z 23003KT 23/15 A297 RMK A01 T02340152  RH  060%=      5-min Rain = 0
KPD2 242216Z 23006KT 23/17 A297 RMK A01 T02290167  RH  068%=      5-min Rain = 0
KPD2 242217Z 22005KT 22/17 A297 RMK A01 T02220167  RH  071%=      5-min Rain = 0
KPD2 242218Z 21002KT 22/17 A297 RMK A01 T02180165  RH  071%=      5-min Rain = 0
KPD2 242219Z 17001KT 22/17 A2971 RMK A01 T02160169  RH  075%=      5-min Rain = 0
KPD2 242220Z 08002KT 21/17 A2971 RMK A01 T02140168  RH  075%=      5-min Rain = 0.01
KPD2 242221Z 08004KT 21/16 A297 RMK A01 T02120164  RH  074%=      5-min Rain = 0
KPD2 242222Z 10004KT 21/16 A297 RMK A01 T02110162  RH  073%=      5-min Rain = 0
KPD2 242223Z 13004KT 21/17 A2971 RMK A01 T02100170  RH  078%=      5-min Rain = 0
KPD2 242224Z 11002KT 21/17 A297 RMK A01 T02090168  RH  077%=      5-min Rain = 0.01
KPD2 242225Z 09006KT 21/17 A297 RMK A01 T02080166  RH  077%=      5-min Rain = 0
KPD2 242226Z 09007KT 21/17 A297 RMK A01 T02070168  RH  079%=      5-min Rain = 0.01
KPD2 242227Z 09006KT 21/16 A2969 RMK A01 T02060159  RH  074%=      5-min Rain = 0
KPD2 242228Z 10006KT 21/16 A2969 RMK A01 T02050156  RH  074%=      5-min Rain = 0
KPD2 242229Z 09006KT 20/15 A2969 RMK A01 T02040147  RH  070%=      5-min Rain = 0
KPD2 242230Z 08007KT 21/13 A2968 RMK A01 T02050133  RH  064%=      5-min Rain = 0
KPD2 242231Z 07007KT 22/12 A2968 RMK A01 T02160116  RH  053%=      5-min Rain = 0
KPD2 242232Z 07010KT 22/11 A2968 RMK A01 T02240113  RH  050%=      5-min Rain = 0
KPD2 242233Z 01006G14KT 23/11 A2968 RMK A01 T02330106  RH  045%=      5-min Rain = 0
KPD2 242234Z 29003KT 24/14 A2968 RMK A01 T02370142  RH  056%=      5-min Rain = 0
KPD2 242235Z 14004KT 23/16 A2968 RMK A01 T02300159  RH  064%=      5-min Rain = 0
KPD2 242236Z 13004KT 23/15 A2968 RMK A01 T02250154  RH  064%=      5-min Rain = 0
KPD2 242237Z 10005KT 22/16 A2968 RMK A01 T02230161  RH  068%=      5-min Rain = 0
KPD2 242238Z 08004KT 22/15 A2968 RMK A01 T02210150  RH  064%=      5-min Rain = 0
KPD2 242239Z 08005KT 22/14 A2967 RMK A01 T02210139  RH  060%=      5-min Rain = 0
KPD2 242240Z 06007KT 22/13 A2967 RMK A01 T02240125  RH  053%=      5-min Rain = 0
KPD2 242241Z 17006KT 23/13 A2967 RMK A01 T02310128  RH  052%=      5-min Rain = 0
KPD2 242242Z 12008KT 24/13 A2967 RMK A01 T02360128  RH  051%=      5-min Rain = 0
KPD2 242243Z 07008KT 24/11 A2966 RMK A01 T02400113  RH  045%=      5-min Rain = 0
KPD2 242244Z 03006KT 25/10 A2966 RMK A01 T02450101  RH  040%=      5-min Rain = 0
KPD2 242245Z 05003KT 25/09 A2966 RMK A01 T02500094  RH  037%=      5-min Rain = 0
KPD2 242246Z 09004KT 25/10 A2966 RMK A01 T02540095  RH  037%=      5-min Rain = 0
KPD2 242247Z 12003KT 26/09 A2966 RMK A01 T02570094  RH  036%=      5-min Rain = 0
KPD2 242248Z 17005KT 26/11 A2966 RMK A01 T02600111  RH  039%=      5-min Rain = 0
KPD2 242249Z 20004KT 26/13 A2967 RMK A01 T02600132  RH  045%=      5-min Rain = 0
KPD2 242250Z 22001KT 25/14 A2967 RMK A01 T02540143  RH  050%=      5-min Rain = 0
KPD2 242251Z 07001KT 25/15 A2967 RMK A01 T02490148  RH  053%=      5-min Rain = 0
KPD2 242252Z 00002KT 24/15 A2967 RMK A01 T02440154  RH  057%=      5-min Rain = 0
KPD2 242253Z 36005KT 24/15 A2967 RMK A01 T02390153  RH  059%=      5-min Rain = 0
KPD2 242254Z 00007KT 24/16 A2967 RMK A01 T02360156  RH  061%=      5-min Rain = 0
KPD2 242255Z 01006KT 24/16 A2966 RMK A01 T02350161  RH  063%=      5-min Rain = 0
KPD2 242256Z 01005KT 23/17 A2966 RMK A01 T02330169  RH  067%=      5-min Rain = 0
KPD2 242257Z 00004KT 23/16 A2966 RMK A01 T02310159  RH  064%=      5-min Rain = 0
KPD2 242258Z 01003KT 23/15 A2966 RMK A01 T02310153  RH  061%=      5-min Rain = 0
KPD2 242259Z 28003KT 23/16 A2966 RMK A01 T02310155  RH  062%=      5-min Rain = 0
KPD2 242300Z 27005KT 23/16 A2967 RMK A01 T02300158  RH  064%=      5-min Rain = 0
KPD2 242301Z 27004KT 23/15 A2967 RMK A01 T02290151  RH  061%=      5-min Rain = 0
KPD2 242302Z 28005KT 23/15 A2967 RMK A01 T02290145  RH  059%=      5-min Rain = 0
KPD2 242303Z 29004KT 23/13 A2967 RMK A01 T02300134  RH  055%=      5-min Rain = 0
KPD2 242304Z 31006KT 23/13 A2966 RMK A01 T02340127  RH  051%=      5-min Rain = 0
KPD2 242305Z 32005KT 24/13 A2966 RMK A01 T02380132  RH  052%=      5-min Rain = 0
KPD2 242306Z 33004KT 24/13 A2966 RMK A01 T02390131  RH  051%=      5-min Rain = 0
KPD2 242307Z 00005KT 24/13 A2966 RMK A01 T02390134  RH  052%=      5-min Rain = 0
KPD2 242308Z 01005KT 24/14 A2966 RMK A01 T02390142  RH  055%=      5-min Rain = 0
KPD2 242309Z 02004KT 24/14 A2966 RMK A01 T02380136  RH  053%=      5-min Rain = 0
KPD2 242310Z 02004KT 24/13 A2965 RMK A01 T02370133  RH  052%=      5-min Rain = 0
KPD2 242311Z 02003KT 24/14 A2965 RMK A01 T02380138  RH  054%=      5-min Rain = 0
KPD2 242312Z 01003KT 24/14 A2965 RMK A01 T02370136  RH  053%=      5-min Rain = 0
KPD2 242313Z 02002KT 24/14 A2965 RMK A01 T02380140  RH  054%=      5-min Rain = 0
KPD2 242314Z 28001KT 24/14 A2965 RMK A01 T02370138  RH  054%=      5-min Rain = 0
KPD2 242315Z 27003KT 23/14 A2965 RMK A01 T02340141  RH  056%=      5-min Rain = 0
KPD2 242316Z 27002KT 23/15 A2966 RMK A01 T02330145  RH  058%=      5-min Rain = 0
KPD2 242317Z 25001KT 23/15 A2966 RMK A01 T02320152  RH  061%=      5-min Rain = 0
KPD2 242318Z 25002KT 23/15 A2966 RMK A01 T02320147  RH  059%=      5-min Rain = 0
KPD2 242319Z 26002KT 23/16 A2966 RMK A01 T02310158  RH  064%=      5-min Rain = 0
KPD2 242320Z 26000KT 23/14 A2966 RMK A01 T02300141  RH  057%=      5-min Rain = 0
KPD2 242321Z 15001KT 23/14 A2966 RMK A01 T02300141  RH  057%=      5-min Rain = 0
KPD2 242322Z 13003KT 23/14 A2966 RMK A01 T02320143  RH  057%=      5-min Rain = 0
KPD2 242323Z 11003KT 23/15 A2967 RMK A01 T02320153  RH  061%=      5-min Rain = 0
KPD2 242324Z 13002KT 23/14 A2967 RMK A01 T02320143  RH  057%=      5-min Rain = 0
KPD2 242325Z 13002KT 23/14 A2966 RMK A01 T02320144  RH  057%=      5-min Rain = 0
KPD2 242326Z 09002KT 23/14 A2966 RMK A01 T02330139  RH  056%=      5-min Rain = 0
KPD2 242327Z 08002KT 23/14 A2966 RMK A01 T02340143  RH  057%=      5-min Rain = 0
KPD2 242328Z 08001KT 23/13 A2966 RMK A01 T02330134  RH  054%=      5-min Rain = 0
KPD2 242329Z 09002KT 23/13 A2966 RMK A01 T02340128  RH  051%=      5-min Rain = 0
KPD2 242330Z 15002KT 23/14 A2966 RMK A01 T02340136  RH  054%=      5-min Rain = 0
KPD2 242331Z 16003KT 24/15 A2967 RMK A01 T02350147  RH  058%=      5-min Rain = 0
KPD2 242332Z 19002KT 24/15 A2967 RMK A01 T02360147  RH  057%=      5-min Rain = 0
KPD2 242333Z 23002KT 24/14 A2967 RMK A01 T02360143  RH  056%=      5-min Rain = 0
KPD2 242334Z 16002KT 24/14 A2967 RMK A01 T02350135  RH  053%=      5-min Rain = 0
KPD2 242335Z 16004KT 24/14 A2967 RMK A01 T02360143  RH  056%=      5-min Rain = 0
KPD2 242336Z 18005KT 24/14 A2968 RMK A01 T02360142  RH  056%=      5-min Rain = 0
KPD2 242337Z 19004KT 24/14 A2968 RMK A01 T02360138  RH  054%=      5-min Rain = 0
KPD2 242338Z 20001KT 24/15 A2968 RMK A01 T02360146  RH  057%=      5-min Rain = 0
KPD2 242339Z 15000KT 24/14 A2968 RMK A01 T02350143  RH  056%=      5-min Rain = 0
KPD2 242340Z 16001KT 24/15 A2968 RMK A01 T02350150  RH  059%=      5-min Rain = 0
KPD2 242341Z 21001KT 23/14 A2968 RMK A01 T02340142  RH  056%=      5-min Rain = 0
KPD2 242342Z 00000KT 23/13 A2968 RMK A01 T02340126  RH  051%=      5-min Rain = 0
KPD2 242343Z 30002KT 24/14 A2969 RMK A01 T02350140  RH  055%=      5-min Rain = 0
KPD2 242344Z 31002KT 23/15 A2969 RMK A01 T02340150  RH  059%=      5-min Rain = 0
KPD2 242345Z 24003KT 23/14 A2969 RMK A01 T02320136  RH  055%=      5-min Rain = 0
KPD2 242346Z 22008G16KT 23/10 A2969 RMK A01 T02340103  RH  044%=      5-min Rain = 0
KPD2 242347Z 23010KT 24/08 A2969 RMK A01 T02440077  RH  035%=      5-min Rain = 0
KPD2 242348Z 18011G16KT 25/06 A2968 RMK A01 T02520061  RH  029%=      5-min Rain = 0
KPD2 242349Z 21012KT 26/06 A2968 RMK A01 T02610057  RH  027%=      5-min Rain = 0
KPD2 242350Z 22012G17KT 27/05 A2968 RMK A01 T02660051  RH  025%=      5-min Rain = 0
KPD2 242351Z 20004G9KT 27/03 A2967 RMK A01 T02710030  RH  021%=      5-min Rain = 0
KPD2 242352Z 12004KT 28/04 A2966 RMK A01 T02780040  RH  022%=      5-min Rain = 0
KPD2 242353Z 12008KT 28/07 A2965 RMK A01 T02780071  RH  027%=      5-min Rain = 0
KPD2 242354Z 11010G15KT 28/06 A2964 RMK A01 T02760064  RH  026%=      5-min Rain = 0
KPD2 242355Z 11007KT 27/06 A2963 RMK A01 T02740057  RH  025%=      5-min Rain = 0
KPD2 242356Z 10007G12KT 27/03 A2962 RMK A01 T02740033  RH  021%=      5-min Rain = 0
KPD2 242357Z 10007KT 28/04 A2962 RMK A01 T02750041  RH  022%=      5-min Rain = 0
KPD2 242358Z 09007KT 28/04 A2962 RMK A01 T02770038  RH  022%=      5-min Rain = 0
KPD2 242359Z 02007KT 28/05 A2962 RMK A01 T02790046  RH  023%=      5-min Rain = 0
KPD2 250000Z 02009KT 28/05 A2963 RMK A01 T02790054  RH  024%=      5-min Rain = 0
KPD2 250001Z 03008KT 28/06 A2963 RMK A01 T02760057  RH  025%=      5-min Rain = 0
KPD2 250002Z 01008KT 27/05 A2963 RMK A01 T02730050  RH  024%=      5-min Rain = 0
KPD2 250003Z 01008KT 27/06 A2963 RMK A01 T02720056  RH  025%=      5-min Rain = 0
KPD2 250004Z 04006KT 27/05 A2962 RMK A01 T02700053  RH  025%=      5-min Rain = 0
KPD2 250005Z 05005KT 27/06 A2962 RMK A01 T02700057  RH  026%=      5-min Rain = 0
KPD2 250006Z 03006KT 27/05 A2962 RMK A01 T02690051  RH  025%=      5-min Rain = 0
KPD2 250007Z 04004G9KT 27/05 A2962 RMK A01 T02690052  RH  025%=      5-min Rain = 0
KPD2 250008Z 03002KT 27/05 A2962 RMK A01 T02690053  RH  025%=      5-min Rain = 0
KPD2 250009Z 07006KT 27/05 A2962 RMK A01 T02700045  RH  024%=      5-min Rain = 0
KPD2 250010Z 06003KT 27/04 A2962 RMK A01 T02710041  RH  023%=      5-min Rain = 0
KPD2 250011Z 35003KT 27/05 A2962 RMK A01 T02730045  RH  023%=      5-min Rain = 0
KPD2 250012Z 01003KT 27/05 A2962 RMK A01 T02730050  RH  024%=      5-min Rain = 0
KPD2 250013Z 08001KT 27/04 A2962 RMK A01 T02730044  RH  023%=      5-min Rain = 0
KPD2 250014Z 18003KT 27/05 A2962 RMK A01 T02730046  RH  023%=      5-min Rain = 0
KPD2 250015Z 20005KT 27/06 A2962 RMK A01 T02720063  RH  026%=      5-min Rain = 0
KPD2 250016Z 20005KT 27/07 A2962 RMK A01 T02700069  RH  028%=      5-min Rain = 0
KPD2 250017Z 19005KT 27/07 A2962 RMK A01 T02670067  RH  028%=      5-min Rain = 0
KPD2 250018Z 18004KT 27/07 A2962 RMK A01 T02660065  RH  028%=      5-min Rain = 0
KPD2 250019Z 17003KT 27/07 A2962 RMK A01 T02650068  RH  029%=      5-min Rain = 0
KPD2 250020Z 12003KT 26/08 A2962 RMK A01 T02630084  RH  032%=      5-min Rain = 0
KPD2 250021Z 11003KT 26/09 A2963 RMK A01 T02610091  RH  034%=      5-min Rain = 0
KPD2 250022Z 09003KT 26/08 A2963 RMK A01 T02590082  RH  033%=      5-min Rain = 0
KPD2 250023Z 10003KT 26/07 A2963 RMK A01 T02570072  RH  031%=      5-min Rain = 0
KPD2 250024Z 12003KT 26/09 A2964 RMK A01 T02570085  RH  034%=      5-min Rain = 0
KPD2 250025Z 12003KT 26/09 A2964 RMK A01 T02560091  RH  035%=      5-min Rain = 0
KPD2 250026Z 09003KT 25/09 A2964 RMK A01 T02540094  RH  036%=      5-min Rain = 0
KPD2 250027Z 08004KT 25/09 A2964 RMK A01 T02530088  RH  035%=      5-min Rain = 0
KPD2 250028Z 09005KT 25/08 A2965 RMK A01 T02520080  RH  033%=      5-min Rain = 0
KPD2 250029Z 10005KT 25/07 A2965 RMK A01 T02530067  RH  031%=      5-min Rain = 0
KPD2 250030Z 10006KT 25/07 A2965 RMK A01 T02540071  RH  031%=      5-min Rain = 0
KPD2 250031Z 10005KT 26/08 A2965 RMK A01 T02550076  RH  032%=      5-min Rain = 0
KPD2 250032Z 11005KT 26/07 A2965 RMK A01 T02550072  RH  031%=      5-min Rain = 0
KPD2 250033Z 09004KT 26/06 A2965 RMK A01 T02550063  RH  029%=      5-min Rain = 0
KPD2 250034Z 11004KT 26/06 A2965 RMK A01 T02580056  RH  028%=      5-min Rain = 0
KPD2 250035Z 09007KT 26/06 A2965 RMK A01 T02590059  RH  028%=      5-min Rain = 0
KPD2 250036Z 07003KT 26/05 A2965 RMK A01 T02620050  RH  026%=      5-min Rain = 0
KPD2 250037Z 08003KT 27/06 A2965 RMK A01 T02650057  RH  027%=      5-min Rain = 0
KPD2 250038Z 05004KT 27/06 A2965 RMK A01 T02650062  RH  027%=      5-min Rain = 0
KPD2 250039Z 06003KT 26/06 A2965 RMK A01 T02640063  RH  028%=      5-min Rain = 0
KPD2 250040Z 07006KT 26/06 A2965 RMK A01 T02640058  RH  027%=      5-min Rain = 0
KPD2 250041Z 09005KT 26/06 A2965 RMK A01 T02630056  RH  027%=      5-min Rain = 0
KPD2 250042Z 11004KT 26/06 A2965 RMK A01 T02640058  RH  027%=      5-min Rain = 0
KPD2 250043Z 10006KT 27/05 A2965 RMK A01 T02650054  RH  026%=      5-min Rain = 0
KPD2 250044Z 12004KT 27/07 A2965 RMK A01 T02660067  RH  028%=      5-min Rain = 0
KPD2 250045Z 11003KT 27/07 A2965 RMK A01 T02650068  RH  028%=      5-min Rain = 0
KPD2 250046Z 12005KT 26/08 A2965 RMK A01 T02630076  RH  030%=      5-min Rain = 0
KPD2 250047Z 08006KT 26/08 A2965 RMK A01 T02610078  RH  031%=      5-min Rain = 0
KPD2 250048Z 09004KT 26/07 A2965 RMK A01 T02600073  RH  030%=      5-min Rain = 0
KPD2 250049Z 10005KT 26/07 A2964 RMK A01 T02590066  RH  029%=      5-min Rain = 0
KPD2 250050Z 10004KT 26/07 A2964 RMK A01 T02590067  RH  029%=      5-min Rain = 0
KPD2 250051Z 11002KT 26/06 A2964 RMK A01 T02580063  RH  029%=      5-min Rain = 0
KPD2 250052Z 12003KT 26/07 A2964 RMK A01 T02580067  RH  029%=      5-min Rain = 0
KPD2 250053Z 14003KT 26/07 A2964 RMK A01 T02590066  RH  029%=      5-min Rain = 0
KPD2 250054Z 16005KT 26/07 A2964 RMK A01 T02590069  RH  030%=      5-min Rain = 0
KPD2 250055Z 15004KT 26/07 A2964 RMK A01 T02590074  RH  031%=      5-min Rain = 0
KPD2 250056Z 14003KT 26/07 A2964 RMK A01 T02580074  RH  031%=      5-min Rain = 0
KPD2 250057Z 14005KT 26/08 A2964 RMK A01 T02570081  RH  033%=      5-min Rain = 0
KPD2 250058Z 14006KT 26/08 A2964 RMK A01 T02560075  RH  032%=      5-min Rain = 0
KPD2 250059Z 12004KT 26/08 A2964 RMK A01 T02550082  RH  033%=      5-min Rain = 0
KPD2 250100Z 10004KT 25/08 A2963 RMK A01 T02540081  RH  033%=      5-min Rain = 0
KPD2 250101Z 07004KT 25/07 A2963 RMK A01 T02530072  RH  031%=      5-min Rain = 0
KPD2 250102Z 06003KT 25/07 A2963 RMK A01 T02530071  RH  031%=      5-min Rain = 0
KPD2 250103Z 06004KT 25/07 A2963 RMK A01 T02520070  RH  031%=      5-min Rain = 0
KPD2 250104Z 08003KT 25/07 A2963 RMK A01 T02530065  RH  030%=      5-min Rain = 0
KPD2 250105Z 09004KT 25/07 A2963 RMK A01 T02540068  RH  030%=      5-min Rain = 0
KPD2 250106Z 13003KT 26/07 A2963 RMK A01 T02550070  RH  031%=      5-min Rain = 0
KPD2 250107Z 13004KT 26/08 A2963 RMK A01 T02550079  RH  033%=      5-min Rain = 0
KPD2 250108Z 12004KT 26/08 A2963 RMK A01 T02550081  RH  033%=      5-min Rain = 0
KPD2 250109Z 15003KT 25/08 A2963 RMK A01 T02530083  RH  034%=      5-min Rain = 0
KPD2 250110Z 17000KT 25/08 A2963 RMK A01 T02520082  RH  034%=      5-min Rain = 0
KPD2 250111Z 09001KT 25/08 A2963 RMK A01 T02510084  RH  034%=      5-min Rain = 0
KPD2 250112Z 10000KT 25/09 A2963 RMK A01 T02500092  RH  037%=      5-min Rain = 0
KPD2 250113Z 09002KT 25/08 A2962 RMK A01 T02480084  RH  035%=      5-min Rain = 0
KPD2 250114Z 06001KT 25/09 A2962 RMK A01 T02460085  RH  036%=      5-min Rain = 0
KPD2 250115Z 05001KT 24/08 A2962 RMK A01 T02440078  RH  035%=      5-min Rain = 0
KPD2 250116Z 30003KT 24/09 A2962 RMK A01 T02430086  RH  037%=      5-min Rain = 0
KPD2 250117Z 28003KT 24/09 A2962 RMK A01 T02420089  RH  038%=      5-min Rain = 0
KPD2 250118Z 28002KT 24/10 A2963 RMK A01 T02410095  RH  040%=      5-min Rain = 0
KPD2 250119Z 25002KT 24/10 A2963 RMK A01 T02390095  RH  040%=      5-min Rain = 0
KPD2 250120Z 20002KT 24/09 A2963 RMK A01 T02390087  RH  038%=      5-min Rain = 0
KPD2 250121Z 21002KT 24/09 A2963 RMK A01 T02380091  RH  039%=      5-min Rain = 0
KPD2 250122Z 22002KT 24/08 A2963 RMK A01 T02380083  RH  037%=      5-min Rain = 0
KPD2 250123Z 24001KT 24/09 A2963 RMK A01 T02380093  RH  040%=      5-min Rain = 0
KPD2 250124Z 24001KT 24/09 A2963 RMK A01 T02380091  RH  039%=      5-min Rain = 0
KPD2 250125Z 21001KT 24/08 A2963 RMK A01 T02370082  RH  037%=      5-min Rain = 0
KPD2 250126Z 16002KT 24/09 A2963 RMK A01 T02370088  RH  039%=      5-min Rain = 0
KPD2 250127Z 16002KT 24/10 A2963 RMK A01 T02360100  RH  042%=      5-min Rain = 0
KPD2 250128Z 13002KT 24/10 A2963 RMK A01 T02350098  RH  042%=      5-min Rain = 0
KPD2 250129Z 11002KT 23/09 A2963 RMK A01 T02340092  RH  040%=      5-min Rain = 0
KPD2 250130Z 08001KT 23/09 A2963 RMK A01 T02340086  RH  039%=      5-min Rain = 0
KPD2 250131Z 06002KT 23/08 A2963 RMK A01 T02340084  RH  038%=      5-min Rain = 0
KPD2 250132Z 05003KT 23/09 A2963 RMK A01 T02330087  RH  039%=      5-min Rain = 0
KPD2 250133Z 04004KT 23/08 A2963 RMK A01 T02330083  RH  038%=      5-min Rain = 0
KPD2 250134Z 06003KT 23/08 A2964 RMK A01 T02340083  RH  038%=      5-min Rain = 0
KPD2 250135Z 07002KT 23/08 A2964 RMK A01 T02340076  RH  036%=      5-min Rain = 0
KPD2 250136Z 11003KT 24/08 A2964 RMK A01 T02360079  RH  036%=      5-min Rain = 0
KPD2 250137Z 14004KT 24/08 A2964 RMK A01 T02370083  RH  037%=      5-min Rain = 0
KPD2 250138Z 15006KT 24/09 A2965 RMK A01 T02380093  RH  040%=      5-min Rain = 0
KPD2 250139Z 15007KT 24/09 A2965 RMK A01 T02380094  RH  040%=      5-min Rain = 0
KPD2 250140Z 15007KT 24/10 A2965 RMK A01 T02380099  RH  041%=      5-min Rain = 0
KPD2 250141Z 14008KT 24/10 A2965 RMK A01 T02370098  RH  041%=      5-min Rain = 0
KPD2 250142Z 13008KT 24/09 A2965 RMK A01 T02360092  RH  040%=      5-min Rain = 0
KPD2 250143Z 13008KT 24/09 A2965 RMK A01 T02360087  RH  039%=      5-min Rain = 0
KPD2 250144Z 12005G13KT 24/09 A2965 RMK A01 T02370091  RH  039%=      5-min Rain = 0
KPD2 250145Z 13009KT 24/09 A2965 RMK A01 T02370088  RH  039%=      5-min Rain = 0
KPD2 250146Z 13007KT 24/09 A2965 RMK A01 T02370088  RH  039%=      5-min Rain = 0
KPD2 250147Z 13009KT 24/09 A2965 RMK A01 T02370087  RH  038%=      5-min Rain = 0
KPD2 250148Z 13007KT 24/08 A2965 RMK A01 T02370084  RH  037%=      5-min Rain = 0
KPD2 250149Z 14006KT 24/09 A2965 RMK A01 T02380087  RH  038%=      5-min Rain = 0
KPD2 250150Z 14008KT 24/09 A2965 RMK A01 T02380086  RH  038%=      5-min Rain = 0
KPD2 250151Z 13008G13KT 24/09 A2965 RMK A01 T02380086  RH  038%=      5-min Rain = 0
KPD2 250152Z 13009KT 24/09 A2965 RMK A01 T02380086  RH  038%=      5-min Rain = 0
KPD2 250153Z 13009KT 24/09 A2965 RMK A01 T02380088  RH  038%=      5-min Rain = 0
KPD2 250154Z 13010KT 24/09 A2965 RMK A01 T02370086  RH  038%=      5-min Rain = 0
KPD2 250155Z 13009KT 24/09 A2966 RMK A01 T02370085  RH  038%=      5-min Rain = 0
KPD2 250156Z 13009KT 24/09 A2966 RMK A01 T02370087  RH  038%=      5-min Rain = 0
KPD2 250157Z 13009KT 24/09 A2966 RMK A01 T02360087  RH  039%=      5-min Rain = 0
KPD2 250158Z 13010KT 24/08 A2966 RMK A01 T02360084  RH  038%=      5-min Rain = 0
KPD2 250159Z 13009KT 24/09 A2966 RMK A01 T02360085  RH  038%=      5-min Rain = 0
KPD2 250200Z 13009KT 24/09 A2966 RMK A01 T02370086  RH  038%=      5-min Rain = 0
KPD2 250201Z 12009G15KT 24/09 A2966 RMK A01 T02370087  RH  038%=      5-min Rain = 0
KPD2 250202Z 12011G16KT 24/08 A2966 RMK A01 T02360082  RH  037%=      5-min Rain = 0
KPD2 250203Z 12009KT 24/08 A2966 RMK A01 T02370080  RH  037%=      5-min Rain = 0
KPD2 250204Z 12009KT 24/08 A2966 RMK A01 T02370082  RH  037%=      5-min Rain = 0
KPD2 250205Z 12008KT 24/09 A2966 RMK A01 T02380085  RH  038%=      5-min Rain = 0
KPD2 250206Z 12009KT 24/08 A2966 RMK A01 T02370084  RH  037%=      5-min Rain = 0
KPD2 250207Z 12006KT 24/08 A2966 RMK A01 T02370081  RH  037%=      5-min Rain = 0
KPD2 250208Z 12006KT 24/08 A2966 RMK A01 T02370082  RH  037%=      5-min Rain = 0
KPD2 250209Z 12005KT 24/08 A2966 RMK A01 T02360084  RH  038%=      5-min Rain = 0
KPD2 250210Z 11004KT 24/09 A2966 RMK A01 T02360086  RH  038%=      5-min Rain = 0
KPD2 250211Z 11006KT 24/08 A2966 RMK A01 T02350083  RH  038%=      5-min Rain = 0
KPD2 250212Z 12005G13KT 24/08 A2966 RMK A01 T02350080  RH  037%=      5-min Rain = 0
KPD2 250213Z 10007G13KT 24/08 A2966 RMK A01 T02350077  RH  036%=      5-min Rain = 0
KPD2 250214Z 12007KT 24/08 A2966 RMK A01 T02370080  RH  037%=      5-min Rain = 0
KPD2 250215Z 10007KT 24/08 A2966 RMK A01 T02370078  RH  036%=      5-min Rain = 0
KPD2 250216Z 11005KT 24/08 A2967 RMK A01 T02370080  RH  037%=      5-min Rain = 0
KPD2 250217Z 11005KT 24/09 A2967 RMK A01 T02370085  RH  038%=      5-min Rain = 0
KPD2 250218Z 10006KT 24/09 A2967 RMK A01 T02360085  RH  038%=      5-min Rain = 0
KPD2 250219Z 10006KT 24/09 A2967 RMK A01 T02360085  RH  038%=      5-min Rain = 0
KPD2 250220Z 10008KT 24/08 A2967 RMK A01 T02350082  RH  038%=      5-min Rain = 0
KPD2 250221Z 11008G13KT 24/09 A2967 RMK A01 T02350085  RH  038%=      5-min Rain = 0
KPD2 250222Z 10008KT 23/09 A2967 RMK A01 T02340085  RH  039%=      5-min Rain = 0
KPD2 250223Z 13008KT 23/09 A2967 RMK A01 T02340085  RH  039%=      5-min Rain = 0
KPD2 250224Z 12012G22KT 23/09 A2967 RMK A01 T02330088  RH  039%=      5-min Rain = 0
KPD2 250225Z 11008G13KT 23/09 A2967 RMK A01 T02330086  RH  039%=      5-min Rain = 0
KPD2 250226Z 11007KT 23/09 A2967 RMK A01 T02320088  RH  040%=      5-min Rain = 0
KPD2 250227Z 11008G15KT 23/09 A2967 RMK A01 T02310085  RH  039%=      5-min Rain = 0
KPD2 250228Z 11007G12KT 23/08 A2967 RMK A01 T02310082  RH  039%=      5-min Rain = 0
KPD2 250229Z 11006G11KT 23/08 A2967 RMK A01 T02310084  RH  039%=      5-min Rain = 0
KPD2 250230Z 10008KT 23/08 A2966 RMK A01 T02310084  RH  039%=      5-min Rain = 0
KPD2 250231Z 13007KT 23/09 A2966 RMK A01 T02310086  RH  040%=      5-min Rain = 0
KPD2 250232Z 12007G12KT 23/09 A2966 RMK A01 T02310087  RH  040%=      5-min Rain = 0
KPD2 250233Z 11005KT 23/09 A2966 RMK A01 T02300087  RH  040%=      5-min Rain = 0
KPD2 250234Z 15006KT 23/09 A2967 RMK A01 T02300088  RH  040%=      5-min Rain = 0
KPD2 250235Z 15005KT 23/09 A2967 RMK A01 T02290092  RH  042%=      5-min Rain = 0
KPD2 250236Z 16008KT 23/10 A2967 RMK A01 T02270095  RH  043%=      5-min Rain = 0
KPD2 250237Z 15009KT 23/09 A2967 RMK A01 T02260094  RH  043%=      5-min Rain = 0
KPD2 250238Z 15010KT 23/09 A2968 RMK A01 T02250091  RH  043%=      5-min Rain = 0
KPD2 250239Z 15006KT 23/09 A2968 RMK A01 T02250091  RH  042%=      5-min Rain = 0
KPD2 250240Z 13003KT 22/09 A2968 RMK A01 T02240094  RH  043%=      5-min Rain = 0
KPD2 250241Z 15004KT 22/09 A2968 RMK A01 T02230093  RH  043%=      5-min Rain = 0
KPD2 250242Z 14006KT 22/09 A2968 RMK A01 T02230094  RH  044%=      5-min Rain = 0
KPD2 250243Z 14005KT 22/09 A2968 RMK A01 T02220094  RH  044%=      5-min Rain = 0
KPD2 250244Z 14005KT 22/10 A2968 RMK A01 T02220096  RH  045%=      5-min Rain = 0
KPD2 250245Z 15006KT 22/09 A2968 RMK A01 T02210094  RH  044%=      5-min Rain = 0
KPD2 250246Z 15007KT 22/09 A2968 RMK A01 T02210094  RH  044%=      5-min Rain = 0
KPD2 250247Z 15005KT 22/09 A2969 RMK A01 T02210093  RH  044%=      5-min Rain = 0
KPD2 250248Z 15008KT 22/09 A2969 RMK A01 T02210092  RH  044%=      5-min Rain = 0
KPD2 250249Z 15007KT 22/09 A2969 RMK A01 T02210093  RH  044%=      5-min Rain = 0
KPD2 250250Z 17006KT 22/09 A2969 RMK A01 T02210092  RH  044%=      5-min Rain = 0
KPD2 250251Z 16004KT 22/09 A2969 RMK A01 T02210092  RH  044%=      5-min Rain = 0
KPD2 250252Z 17007KT 22/09 A2969 RMK A01 T02200093  RH  044%=      5-min Rain = 0
KPD2 250253Z 15007KT 22/09 A2968 RMK A01 T02200093  RH  044%=      5-min Rain = 0
KPD2 250254Z 15006KT 22/09 A2968 RMK A01 T02200091  RH  044%=      5-min Rain = 0
KPD2 250255Z 16006KT 22/09 A2967 RMK A01 T02190093  RH  044%=      5-min Rain = 0
KPD2 250256Z 15005KT 22/09 A2967 RMK A01 T02190094  RH  045%=      5-min Rain = 0
KPD2 250257Z 14005KT 22/10 A2967 RMK A01 T02180096  RH  046%=      5-min Rain = 0
KPD2 250258Z 14006KT 22/10 A2967 RMK A01 T02170098  RH  047%=      5-min Rain = 0
KPD2 250259Z 14007KT 22/10 A2967 RMK A01 T02160099  RH  047%=      5-min Rain = 0
KPD2 250300Z 14007KT 22/10 A2967 RMK A01 T02150097  RH  047%=      5-min Rain = 0
KPD2 250301Z 15007KT 22/10 A2967 RMK A01 T02150098  RH  047%=      5-min Rain = 0
KPD2 250302Z 15007KT 21/10 A2968 RMK A01 T02140097  RH  047%=      5-min Rain = 0
KPD2 250303Z 14005KT 21/10 A2968 RMK A01 T02140096  RH  047%=      5-min Rain = 0
KPD2 250304Z 15005KT 21/10 A2968 RMK A01 T02140098  RH  048%=      5-min Rain = 0
KPD2 250305Z 15006KT 21/10 A2968 RMK A01 T02130098  RH  048%=      5-min Rain = 0
KPD2 250306Z 15008KT 21/10 A2968 RMK A01 T02130098  RH  048%=      5-min Rain = 0
KPD2 250307Z 15007KT 21/10 A2968 RMK A01 T02120098  RH  048%=      5-min Rain = 0
KPD2 250308Z 14008KT 21/10 A2969 RMK A01 T02120100  RH  049%=      5-min Rain = 0
KPD2 250309Z 14007KT 21/10 A2969 RMK A01 T02120102  RH  049%=      5-min Rain = 0
KPD2 250310Z 13007KT 21/10 A2969 RMK A01 T02120104  RH  050%=      5-min Rain = 0
KPD2 250311Z 13007KT 21/11 A2969 RMK A01 T02120107  RH  051%=      5-min Rain = 0
KPD2 250312Z 13006KT 21/11 A2969 RMK A01 T02110110  RH  052%=      5-min Rain = 0
KPD2 250313Z 13005KT 21/11 A2969 RMK A01 T02110112  RH  053%=      5-min Rain = 0
KPD2 250314Z 13009KT 21/11 A2969 RMK A01 T02100113  RH  054%=      5-min Rain = 0
KPD2 250315Z 13007KT 21/12 A297 RMK A01 T02090116  RH  055%=      5-min Rain = 0
KPD2 250316Z 14006KT 21/12 A297 RMK A01 T02090118  RH  056%=      5-min Rain = 0
KPD2 250317Z 13007KT 21/12 A297 RMK A01 T02080119  RH  057%=      5-min Rain = 0
KPD2 250318Z 13006KT 21/12 A297 RMK A01 T02080120  RH  057%=      5-min Rain = 0
KPD2 250319Z 13006KT 21/12 A297 RMK A01 T02070121  RH  058%=      5-min Rain = 0
KPD2 250320Z 13007KT 21/12 A2971 RMK A01 T02070121  RH  058%=      5-min Rain = 0
KPD2 250321Z 13006KT 21/12 A2971 RMK A01 T02060121  RH  058%=      5-min Rain = 0
KPD2 250322Z 13006KT 21/12 A2971 RMK A01 T02050122  RH  059%=      5-min Rain = 0
KPD2 250323Z 13007KT 21/12 A2971 RMK A01 T02050122  RH  059%=      5-min Rain = 0
KPD2 250324Z 12005KT 20/12 A2971 RMK A01 T02040122  RH  059%=      5-min Rain = 0
KPD2 250325Z 13006KT 21/12 A2971 RMK A01 T02050122  RH  059%=      5-min Rain = 0
KPD2 250326Z 12004KT 20/12 A2971 RMK A01 T02040123  RH  060%=      5-min Rain = 0
KPD2 250327Z 12004KT 20/12 A2971 RMK A01 T02040124  RH  060%=      5-min Rain = 0
KPD2 250328Z 12006KT 20/12 A297 RMK A01 T02040124  RH  060%=      5-min Rain = 0
KPD2 250329Z 12004KT 20/12 A297 RMK A01 T02030124  RH  060%=      5-min Rain = 0
KPD2 250330Z 11005KT 20/12 A297 RMK A01 T02030124  RH  061%=      5-min Rain = 0
KPD2 250331Z 11005KT 20/12 A297 RMK A01 T02030124  RH  060%=      5-min Rain = 0
KPD2 250332Z 12003KT 20/13 A297 RMK A01 T02020125  RH  061%=      5-min Rain = 0
KPD2 250333Z 13002KT 20/13 A297 RMK A01 T02020125  RH  061%=      5-min Rain = 0
KPD2 250334Z 13004KT 20/13 A297 RMK A01 T02020125  RH  061%=      5-min Rain = 0
KPD2 250335Z 14004KT 20/13 A297 RMK A01 T02020125  RH  061%=      5-min Rain = 0
KPD2 250336Z 15003KT 20/12 A297 RMK A01 T02010124  RH  061%=      5-min Rain = 0
KPD2 250337Z 15004KT 20/12 A297 RMK A01 T02010124  RH  061%=      5-min Rain = 0
KPD2 250338Z 15003KT 20/12 A297 RMK A01 T02010124  RH  061%=      5-min Rain = 0
KPD2 250339Z 15004KT 20/12 A297 RMK A01 T02010124  RH  061%=      5-min Rain = 0
KPD2 250340Z 15004KT 20/12 A297 RMK A01 T02010124  RH  061%=      5-min Rain = 0
KPD2 250341Z 15004KT 20/12 A2969 RMK A01 T02010124  RH  061%=      5-min Rain = 0
KPD2 250342Z 15003KT 20/12 A2969 RMK A01 T02010124  RH  061%=      5-min Rain = 0
KPD2 250343Z 15003KT 20/12 A2969 RMK A01 T02010123  RH  061%=      5-min Rain = 0
KPD2 250344Z 15003KT 20/12 A2969 RMK A01 T02010123  RH  061%=      5-min Rain = 0
KPD2 250345Z 14004KT 20/12 A297 RMK A01 T02010123  RH  061%=      5-min Rain = 0
KPD2 250346Z 15003KT 20/12 A297 RMK A01 T02010124  RH  061%=      5-min Rain = 0
KPD2 250347Z 14003KT 20/12 A297 RMK A01 T02010124  RH  061%=      5-min Rain = 0
KPD2 250348Z 13003KT 20/13 A297 RMK A01 T02010125  RH  062%=      5-min Rain = 0
KPD2 250349Z 12002KT 20/13 A297 RMK A01 T02000125  RH  062%=      5-min Rain = 0
KPD2 250350Z 12003KT 20/13 A297 RMK A01 T02000126  RH  062%=      5-min Rain = 0
KPD2 250351Z 12003KT 20/13 A297 RMK A01 T01990126  RH  063%=      5-min Rain = 0
KPD2 250352Z 11003KT 20/13 A297 RMK A01 T01990127  RH  063%=      5-min Rain = 0
KPD2 250353Z 11003KT 20/13 A297 RMK A01 T01980127  RH  063%=      5-min Rain = 0
KPD2 250354Z 11003KT 20/13 A297 RMK A01 T01980125  RH  063%=      5-min Rain = 0
KPD2 250355Z 11002KT 20/13 A297 RMK A01 T01970125  RH  063%=      5-min Rain = 0
KPD2 250356Z 11002KT 20/13 A297 RMK A01 T01970126  RH  063%=      5-min Rain = 0
KPD2 250357Z 13003KT 20/13 A297 RMK A01 T01970125  RH  063%=      5-min Rain = 0
KPD2 250358Z 14003KT 20/13 A297 RMK A01 T01970127  RH  064%=      5-min Rain = 0
KPD2 250359Z 14005KT 20/13 A297 RMK A01 T01970125  RH  063%=      5-min Rain = 0
KPD2 250400Z 14003KT 20/13 A297 RMK A01 T01970125  RH  063%=      5-min Rain = 0
KPD2 250401Z 14003KT 20/13 A297 RMK A01 T01980125  RH  063%=      5-min Rain = 0
KPD2 250402Z 13003KT 20/12 A297 RMK A01 T01970124  RH  063%=      5-min Rain = 0
KPD2 250403Z 12003KT 20/12 A297 RMK A01 T01970124  RH  063%=      5-min Rain = 0
KPD2 250404Z 12003KT 20/13 A297 RMK A01 T01980125  RH  063%=      5-min Rain = 0
KPD2 250405Z 11003KT 20/13 A297 RMK A01 T01980127  RH  063%=      5-min Rain = 0
KPD2 250406Z 11005KT 20/13 A297 RMK A01 T01980126  RH  063%=      5-min Rain = 0
KPD2 250407Z 11003KT 20/13 A297 RMK A01 T01980125  RH  063%=      5-min Rain = 0
KPD2 250408Z 11003KT 20/13 A297 RMK A01 T01980125  RH  063%=      5-min Rain = 0
KPD2 250409Z 12003KT 20/13 A297 RMK A01 T01980125  RH  063%=      5-min Rain = 0
KPD2 250410Z 13003KT 20/13 A2971 RMK A01 T01980126  RH  064%=      5-min Rain = 0
KPD2 250411Z 14003KT 20/13 A2971 RMK A01 T01980126  RH  063%=      5-min Rain = 0
KPD2 250412Z 08004KT 20/12 A2971 RMK A01 T01970124  RH  062%=      5-min Rain = 0
KPD2 250413Z 10004KT 20/12 A2971 RMK A01 T01980119  RH  060%=      5-min Rain = 0
KPD2 250414Z 11005KT 20/12 A2971 RMK A01 T01980117  RH  060%=      5-min Rain = 0
KPD2 250415Z 09007KT 20/11 A2971 RMK A01 T01980114  RH  058%=      5-min Rain = 0
KPD2 250416Z 10009KT 20/11 A2971 RMK A01 T01990110  RH  056%=      5-min Rain = 0
KPD2 250417Z 10006KT 20/11 A2971 RMK A01 T02000109  RH  056%=      5-min Rain = 0
KPD2 250418Z 10011KT 20/11 A2971 RMK A01 T02010111  RH  056%=      5-min Rain = 0
KPD2 250419Z 09010KT 20/11 A2971 RMK A01 T02010111  RH  056%=      5-min Rain = 0
KPD2 250420Z 10008KT 20/11 A2971 RMK A01 T02020110  RH  055%=      5-min Rain = 0
KPD2 250421Z 11005KT 20/11 A2971 RMK A01 T02020110  RH  055%=      5-min Rain = 0
KPD2 250422Z 10006G11KT 20/11 A2971 RMK A01 T02020110  RH  056%=      5-min Rain = 0
KPD2 250423Z 09009KT 20/11 A2972 RMK A01 T02010107  RH  054%=      5-min Rain = 0
KPD2 250424Z 11008KT 20/11 A2972 RMK A01 T02010105  RH  054%=      5-min Rain = 0
KPD2 250425Z 10008KT 20/10 A2972 RMK A01 T02010104  RH  054%=      5-min Rain = 0
KPD2 250426Z 09007KT 20/10 A2972 RMK A01 T02000104  RH  054%=      5-min Rain = 0
KPD2 250427Z 11006KT 20/10 A2972 RMK A01 T01990103  RH  054%=      5-min Rain = 0
KPD2 250428Z 09007KT 20/10 A2972 RMK A01 T01980103  RH  054%=      5-min Rain = 0
KPD2 250429Z 10008KT 20/10 A2972 RMK A01 T01980102  RH  054%=      5-min Rain = 0
KPD2 250430Z 10007KT 20/10 A2972 RMK A01 T01970102  RH  054%=      5-min Rain = 0
KPD2 250431Z 10004KT 20/10 A2972 RMK A01 T01970102  RH  054%=      5-min Rain = 0
KPD2 250432Z 10005G11KT 20/11 A2972 RMK A01 T01960105  RH  056%=      5-min Rain = 0
KPD2 250433Z 09008G14KT 20/10 A2972 RMK A01 T01950104  RH  056%=      5-min Rain = 0
KPD2 250434Z 13005KT 20/10 A2972 RMK A01 T01950104  RH  056%=      5-min Rain = 0
KPD2 250435Z 10003KT 19/11 A2972 RMK A01 T01940106  RH  057%=      5-min Rain = 0
KPD2 250436Z 10008KT 19/11 A2972 RMK A01 T01940106  RH  057%=      5-min Rain = 0
KPD2 250437Z 09006KT 19/10 A2972 RMK A01 T01930103  RH  056%=      5-min Rain = 0
KPD2 250438Z 10008KT 19/10 A2972 RMK A01 T01930103  RH  056%=      5-min Rain = 0
KPD2 250439Z 11005KT 19/11 A2972 RMK A01 T01920105  RH  057%=      5-min Rain = 0
KPD2 250440Z 11006KT 19/11 A2972 RMK A01 T01920106  RH  057%=      5-min Rain = 0
KPD2 250441Z 12008KT 19/11 A2972 RMK A01 T01910105  RH  057%=      5-min Rain = 0
KPD2 250442Z 13004KT 19/11 A2972 RMK A01 T01910105  RH  057%=      5-min Rain = 0
KPD2 250443Z 13005KT 19/11 A2972 RMK A01 T01910107  RH  058%=      5-min Rain = 0
KPD2 250444Z 12004KT 19/11 A2972 RMK A01 T01910106  RH  058%=      5-min Rain = 0
KPD2 250445Z 11006KT 19/11 A2972 RMK A01 T01900107  RH  058%=      5-min Rain = 0
KPD2 250446Z 12005KT 19/11 A2972 RMK A01 T01900105  RH  058%=      5-min Rain = 0
KPD2 250447Z 13005KT 19/11 A2972 RMK A01 T01900105  RH  058%=      5-min Rain = 0
KPD2 250448Z 13002KT 19/11 A2972 RMK A01 T01900105  RH  058%=      5-min Rain = 0
KPD2 250449Z 11003KT 19/11 A2973 RMK A01 T01900105  RH  058%=      5-min Rain = 0
KPD2 250450Z 11004KT 19/11 A2973 RMK A01 T01890105  RH  058%=      5-min Rain = 0
KPD2 250451Z 15004KT 19/11 A2973 RMK A01 T01900106  RH  058%=      5-min Rain = 0
KPD2 250452Z 13006KT 19/11 A2973 RMK A01 T01890107  RH  059%=      5-min Rain = 0
KPD2 250453Z 11008KT 19/11 A2973 RMK A01 T01890108  RH  059%=      5-min Rain = 0
KPD2 250454Z 11007KT 19/11 A2973 RMK A01 T01880107  RH  059%=      5-min Rain = 0
KPD2 250455Z 10007KT 19/11 A2974 RMK A01 T01870108  RH  060%=      5-min Rain = 0
KPD2 250456Z 09005KT 19/11 A2974 RMK A01 T01870107  RH  060%=      5-min Rain = 0
KPD2 250457Z 12004KT 19/11 A2974 RMK A01 T01860109  RH  061%=      5-min Rain = 0
KPD2 250458Z 14006KT 19/11 A2974 RMK A01 T01860110  RH  061%=      5-min Rain = 0
KPD2 250459Z 13008KT 19/11 A2974 RMK A01 T01850109  RH  061%=      5-min Rain = 0

Page generated in 0.1367 seconds.